N482CS BIRK-EGPC
Flight info
| Callsign | N482CS |
|---|---|
| Flight time | 4h 55m |
| Altitude | 11000 |
| Route | LUTER DCT MOXAL DCT RATSU/N0116F110 DCT DEVBI DCT BAMRA |
| Aircraft | C172/L-SFG/C |
Departure
| Time | 2026-05-09 06:41 |
|---|---|
| Airport | Reykjavík Domestic Airport (BIRK) |
Arrival
| Time | 2026-05-09 11:36 |
|---|---|
| Airport | Wick John O'Groats Airport (EGPC) |
| Time | Latitude | Longitude | Altitude | Speed | Heading |
|---|---|---|---|---|---|
| 2026-05-09 06:37 | 64.12920 | -21.93427 | 40 ft | 3 kts | 269° |
| 2026-05-09 06:37 | 64.12936 | -21.93516 | 40 ft | 7 kts | 319° |
| 2026-05-09 06:37 | 64.12969 | -21.93548 | 40 ft | 4 kts | 346° |
| 2026-05-09 06:38 | 64.13016 | -21.93558 | 41 ft | 12 kts | 1° |
| 2026-05-09 06:38 | 64.13125 | -21.93551 | 39 ft | 16 kts | 355° |
| 2026-05-09 06:38 | 64.13223 | -21.93570 | 41 ft | 12 kts | 355° |
| 2026-05-09 06:38 | 64.13304 | -21.93587 | 40 ft | 11 kts | 356° |
| 2026-05-09 06:39 | 64.13380 | -21.93603 | 38 ft | 11 kts | 355° |
| 2026-05-09 06:39 | 64.13459 | -21.93617 | 34 ft | 13 kts | 354° |
| 2026-05-09 06:39 | 64.13551 | -21.93645 | 32 ft | 13 kts | 333° |
| 2026-05-09 06:39 | 64.13614 | -21.93774 | 31 ft | 11 kts | 306° |
| 2026-05-09 06:40 | 64.13627 | -21.93863 | 35 ft | 4 kts | 247° |
| 2026-05-09 06:40 | 64.13596 | -21.93887 | 35 ft | 6 kts | 175° |
| 2026-05-09 06:40 | 64.13395 | -21.93849 | 37 ft | 51 kts | 175° |
| 2026-05-09 06:40 | 64.12940 | -21.93777 | 100 ft | 72 kts | 176° |
| 2026-05-09 06:41 | 64.12410 | -21.93760 | 280 ft | 77 kts | 189° |
| 2026-05-09 06:41 | 64.11916 | -21.94222 | 492 ft | 78 kts | 207° |
| 2026-05-09 06:41 | 64.11422 | -21.94808 | 686 ft | 82 kts | 211° |
| 2026-05-09 06:41 | 64.10916 | -21.95467 | 875 ft | 86 kts | 213° |
| 2026-05-09 06:42 | 64.10400 | -21.96158 | 1101 ft | 86 kts | 216° |
| 2026-05-09 06:42 | 64.09886 | -21.96864 | 1313 ft | 86 kts | 217° |
| 2026-05-09 06:42 | 64.09377 | -21.97570 | 1522 ft | 85 kts | 217° |
| 2026-05-09 06:42 | 64.08859 | -21.98242 | 1728 ft | 89 kts | 200° |
| 2026-05-09 06:43 | 64.08477 | -21.97922 | 1848 ft | 98 kts | 126° |
| 2026-05-09 06:43 | 64.08465 | -21.96456 | 2058 ft | 94 kts | 95° |
| 2026-05-09 06:43 | 64.08385 | -21.95030 | 2261 ft | 88 kts | 77° |
| 2026-05-09 06:43 | 64.08344 | -21.93623 | 2409 ft | 93 kts | 89° |
| 2026-05-09 06:44 | 64.08255 | -21.92115 | 2542 ft | 100 kts | 99° |
| 2026-05-09 06:44 | 64.08152 | -21.90488 | 2666 ft | 107 kts | 99° |
| 2026-05-09 06:44 | 64.07995 | -21.88199 | 2880 ft | 110 kts | 98° |
| 2026-05-09 06:44 | 64.07917 | -21.87048 | 2985 ft | 111 kts | 98° |
| 2026-05-09 06:45 | 64.07795 | -21.85297 | 3146 ft | 113 kts | 98° |
| 2026-05-09 06:45 | 64.07672 | -21.83527 | 3318 ft | 112 kts | 97° |
| 2026-05-09 06:45 | 64.07719 | -21.81773 | 3498 ft | 110 kts | 79° |
| 2026-05-09 06:45 | 64.07789 | -21.80037 | 3675 ft | 108 kts | 80° |
| 2026-05-09 06:46 | 64.07856 | -21.78340 | 3851 ft | 107 kts | 81° |
| 2026-05-09 06:46 | 64.07916 | -21.76652 | 4029 ft | 106 kts | 81° |
| 2026-05-09 06:46 | 64.07974 | -21.74983 | 4207 ft | 105 kts | 81° |
| 2026-05-09 06:46 | 64.08029 | -21.73327 | 4399 ft | 104 kts | 79° |
| 2026-05-09 06:47 | 64.08083 | -21.71675 | 4559 ft | 105 kts | 79° |
| 2026-05-09 06:47 | 64.08136 | -21.70008 | 4718 ft | 105 kts | 78° |
| 2026-05-09 06:47 | 64.08188 | -21.68349 | 4878 ft | 104 kts | 78° |
| 2026-05-09 06:47 | 64.08241 | -21.66695 | 5041 ft | 104 kts | 78° |
| 2026-05-09 06:48 | 64.08294 | -21.65006 | 5149 ft | 109 kts | 78° |
| 2026-05-09 06:48 | 64.08351 | -21.63253 | 5265 ft | 113 kts | 78° |
| 2026-05-09 06:48 | 64.08408 | -21.61418 | 5380 ft | 118 kts | 78° |
| 2026-05-09 06:48 | 64.08466 | -21.59522 | 5492 ft | 121 kts | 78° |
| 2026-05-09 06:49 | 64.08525 | -21.57585 | 5606 ft | 123 kts | 78° |
| 2026-05-09 06:49 | 64.08585 | -21.55661 | 5753 ft | 120 kts | 78° |
| 2026-05-09 06:49 | 64.08644 | -21.53773 | 5906 ft | 118 kts | 77° |
| 2026-05-09 06:49 | 64.08701 | -21.51906 | 6057 ft | 117 kts | 76° |
| 2026-05-09 06:50 | 64.08757 | -21.50070 | 6205 ft | 115 kts | 76° |
| 2026-05-09 06:50 | 64.08812 | -21.48268 | 6356 ft | 112 kts | 75° |
| 2026-05-09 06:50 | 64.08866 | -21.46527 | 6502 ft | 110 kts | 74° |
| 2026-05-09 06:50 | 64.08923 | -21.44734 | 6597 ft | 114 kts | 75° |
| 2026-05-09 06:51 | 64.08978 | -21.42899 | 6688 ft | 118 kts | 74° |
| 2026-05-09 06:51 | 64.09033 | -21.41030 | 6776 ft | 121 kts | 75° |
| 2026-05-09 06:51 | 64.09089 | -21.39081 | 6870 ft | 124 kts | 75° |
| 2026-05-09 06:51 | 64.09147 | -21.37113 | 6975 ft | 124 kts | 76° |
| 2026-05-09 06:52 | 64.09208 | -21.35139 | 7080 ft | 126 kts | 75° |
| 2026-05-09 06:52 | 64.09265 | -21.33128 | 7184 ft | 127 kts | 76° |
| 2026-05-09 06:52 | 64.09326 | -21.31066 | 7300 ft | 133 kts | 77° |
| 2026-05-09 06:52 | 64.09388 | -21.28921 | 7409 ft | 135 kts | 77° |
| 2026-05-09 06:53 | 64.09447 | -21.26826 | 7533 ft | 130 kts | 76° |
| 2026-05-09 06:53 | 64.09509 | -21.24774 | 7657 ft | 129 kts | 76° |
| 2026-05-09 06:53 | 64.09564 | -21.22753 | 7779 ft | 126 kts | 76° |
| 2026-05-09 06:53 | 64.09622 | -21.20749 | 7901 ft | 126 kts | 76° |
| 2026-05-09 06:54 | 64.09679 | -21.18764 | 8024 ft | 124 kts | 76° |
| 2026-05-09 06:54 | 64.09734 | -21.16838 | 8149 ft | 121 kts | 76° |
| 2026-05-09 06:54 | 64.09789 | -21.14941 | 8273 ft | 118 kts | 75° |
| 2026-05-09 06:54 | 64.09840 | -21.13066 | 8394 ft | 117 kts | 75° |
| 2026-05-09 06:55 | 64.09893 | -21.11218 | 8480 ft | 116 kts | 74° |
| 2026-05-09 06:55 | 64.09945 | -21.09355 | 8539 ft | 119 kts | 75° |
| 2026-05-09 06:55 | 64.09998 | -21.07441 | 8600 ft | 122 kts | 76° |
| 2026-05-09 06:55 | 64.10051 | -21.05494 | 8660 ft | 124 kts | 77° |
| 2026-05-09 06:56 | 64.10104 | -21.03538 | 8712 ft | 122 kts | 75° |
| 2026-05-09 06:56 | 64.10158 | -21.01583 | 8766 ft | 123 kts | 76° |
| 2026-05-09 06:56 | 64.10211 | -20.99619 | 8822 ft | 124 kts | 76° |
| 2026-05-09 06:56 | 64.10264 | -20.97643 | 8857 ft | 125 kts | 77° |
| 2026-05-09 06:57 | 64.10319 | -20.95643 | 8916 ft | 127 kts | 77° |
| 2026-05-09 06:57 | 64.10375 | -20.93586 | 8985 ft | 132 kts | 78° |
| 2026-05-09 06:57 | 64.10429 | -20.91473 | 9069 ft | 131 kts | 77° |
| 2026-05-09 06:57 | 64.10483 | -20.89414 | 9147 ft | 128 kts | 76° |
| 2026-05-09 06:58 | 64.10535 | -20.87392 | 9223 ft | 127 kts | 76° |
| 2026-05-09 06:58 | 64.10588 | -20.85395 | 9298 ft | 125 kts | 76° |
| 2026-05-09 06:58 | 64.10640 | -20.83423 | 9374 ft | 124 kts | 76° |
| 2026-05-09 06:58 | 64.10690 | -20.81474 | 9451 ft | 122 kts | 76° |
| 2026-05-09 06:59 | 64.10740 | -20.79549 | 9527 ft | 120 kts | 76° |
| 2026-05-09 06:59 | 64.10789 | -20.77653 | 9601 ft | 119 kts | 75° |
| 2026-05-09 06:59 | 64.10838 | -20.75766 | 9664 ft | 119 kts | 75° |
| 2026-05-09 06:59 | 64.10886 | -20.73866 | 9722 ft | 120 kts | 75° |
| 2026-05-09 07:00 | 64.10935 | -20.71951 | 9780 ft | 121 kts | 76° |
| 2026-05-09 07:00 | 64.10983 | -20.70016 | 9838 ft | 122 kts | 76° |
| 2026-05-09 07:00 | 64.11032 | -20.68065 | 9896 ft | 123 kts | 75° |
| 2026-05-09 07:00 | 64.11079 | -20.66110 | 9952 ft | 123 kts | 76° |
| 2026-05-09 07:01 | 64.11127 | -20.64153 | 10005 ft | 123 kts | 76° |
| 2026-05-09 07:01 | 64.11176 | -20.62202 | 10060 ft | 123 kts | 76° |
| 2026-05-09 07:01 | 64.11224 | -20.60251 | 10114 ft | 123 kts | 76° |
| 2026-05-09 07:01 | 64.11271 | -20.58307 | 10167 ft | 122 kts | 76° |
| 2026-05-09 07:02 | 64.11317 | -20.56369 | 10218 ft | 122 kts | 76° |
| 2026-05-09 07:02 | 64.11363 | -20.54436 | 10269 ft | 122 kts | 76° |
| 2026-05-09 07:02 | 64.11410 | -20.52510 | 10316 ft | 121 kts | 76° |
| 2026-05-09 07:02 | 64.11456 | -20.50589 | 10364 ft | 121 kts | 76° |
| 2026-05-09 07:03 | 64.11501 | -20.48701 | 10412 ft | 120 kts | 76° |
| 2026-05-09 07:03 | 64.11546 | -20.46790 | 10460 ft | 120 kts | 76° |
| 2026-05-09 07:03 | 64.11590 | -20.44887 | 10505 ft | 120 kts | 75° |
| 2026-05-09 07:03 | 64.11635 | -20.42961 | 10534 ft | 122 kts | 76° |
| 2026-05-09 07:04 | 64.11680 | -20.41004 | 10563 ft | 124 kts | 76° |
| 2026-05-09 07:04 | 64.11726 | -20.39023 | 10594 ft | 126 kts | 77° |
| 2026-05-09 07:04 | 64.11771 | -20.37015 | 10633 ft | 127 kts | 77° |
| 2026-05-09 07:04 | 64.11762 | -20.34983 | 10683 ft | 129 kts | 84° |
| 2026-05-09 07:05 | 64.11758 | -20.32954 | 10735 ft | 128 kts | 81° |
| 2026-05-09 07:05 | 64.11751 | -20.30917 | 10780 ft | 127 kts | 81° |
| 2026-05-09 07:05 | 64.11740 | -20.28898 | 10832 ft | 127 kts | 81° |
| 2026-05-09 07:05 | 64.11727 | -20.26858 | 10881 ft | 128 kts | 81° |
| 2026-05-09 07:06 | 64.11712 | -20.24834 | 10933 ft | 127 kts | 81° |
| 2026-05-09 07:06 | 64.11698 | -20.22814 | 10984 ft | 127 kts | 81° |
| 2026-05-09 07:06 | 64.11683 | -20.20779 | 11037 ft | 128 kts | 81° |
| 2026-05-09 07:06 | 64.11667 | -20.18742 | 11082 ft | 127 kts | 81° |
| 2026-05-09 07:07 | 64.11651 | -20.16739 | 11128 ft | 125 kts | 81° |
| 2026-05-09 07:07 | 64.11635 | -20.14751 | 11177 ft | 125 kts | 81° |
| 2026-05-09 07:07 | 64.11619 | -20.12763 | 11227 ft | 125 kts | 81° |
| 2026-05-09 07:07 | 64.11604 | -20.10772 | 11276 ft | 125 kts | 81° |
| 2026-05-09 07:08 | 64.11587 | -20.08801 | 11344 ft | 125 kts | 81° |
| 2026-05-09 07:08 | 64.11571 | -20.06751 | 11331 ft | 131 kts | 81° |
| 2026-05-09 07:08 | 64.11551 | -20.04645 | 11327 ft | 134 kts | 81° |
| 2026-05-09 07:08 | 64.11533 | -20.02501 | 11328 ft | 136 kts | 81° |
| 2026-05-09 07:09 | 64.11513 | -20.00339 | 11328 ft | 137 kts | 81° |
| 2026-05-09 07:09 | 64.11492 | -19.98163 | 11326 ft | 136 kts | 81° |
| 2026-05-09 07:09 | 64.11474 | -19.96014 | 11326 ft | 135 kts | 81° |
| 2026-05-09 07:09 | 64.11451 | -19.93856 | 11326 ft | 136 kts | 81° |
| 2026-05-09 07:10 | 64.11431 | -19.91685 | 11329 ft | 137 kts | 81° |
| 2026-05-09 07:10 | 64.11410 | -19.89501 | 11331 ft | 138 kts | 81° |
| 2026-05-09 07:10 | 64.11389 | -19.87306 | 11332 ft | 138 kts | 82° |
| 2026-05-09 07:10 | 64.11367 | -19.85104 | 11332 ft | 138 kts | 81° |
| 2026-05-09 07:11 | 64.11345 | -19.82931 | 11332 ft | 139 kts | 81° |
| 2026-05-09 07:11 | 64.11322 | -19.80704 | 11331 ft | 141 kts | 82° |
| 2026-05-09 07:11 | 64.11298 | -19.78461 | 11328 ft | 140 kts | 82° |
| 2026-05-09 07:11 | 64.11274 | -19.76244 | 11326 ft | 139 kts | 82° |
| 2026-05-09 07:12 | 64.11251 | -19.74033 | 11325 ft | 139 kts | 81° |
| 2026-05-09 07:12 | 64.11226 | -19.71824 | 11325 ft | 139 kts | 81° |
| 2026-05-09 07:12 | 64.11202 | -19.69616 | 11324 ft | 139 kts | 82° |
| 2026-05-09 07:12 | 64.11178 | -19.67409 | 11324 ft | 139 kts | 82° |
| 2026-05-09 07:13 | 64.11153 | -19.65203 | 11324 ft | 139 kts | 82° |
| 2026-05-09 07:13 | 64.11127 | -19.62995 | 11325 ft | 139 kts | 82° |
| 2026-05-09 07:13 | 64.11101 | -19.60783 | 11326 ft | 139 kts | 82° |
| 2026-05-09 07:13 | 64.11075 | -19.58562 | 11326 ft | 140 kts | 82° |
| 2026-05-09 07:14 | 64.11048 | -19.56342 | 11321 ft | 140 kts | 82° |
| 2026-05-09 07:14 | 64.11022 | -19.54111 | 11326 ft | 141 kts | 82° |
| 2026-05-09 07:14 | 64.10994 | -19.51852 | 11324 ft | 143 kts | 82° |
| 2026-05-09 07:14 | 64.10965 | -19.49582 | 11319 ft | 142 kts | 82° |
| 2026-05-09 07:15 | 64.10936 | -19.47343 | 11314 ft | 140 kts | 82° |
| 2026-05-09 07:15 | 64.10909 | -19.45111 | 11314 ft | 141 kts | 82° |
| 2026-05-09 07:15 | 64.10881 | -19.42877 | 11314 ft | 141 kts | 82° |
| 2026-05-09 07:15 | 64.10851 | -19.40647 | 11314 ft | 140 kts | 82° |
| 2026-05-09 07:16 | 64.10822 | -19.38421 | 11313 ft | 140 kts | 82° |
| 2026-05-09 07:16 | 64.10792 | -19.36194 | 11313 ft | 140 kts | 82° |
| 2026-05-09 07:16 | 64.10762 | -19.33965 | 11313 ft | 140 kts | 82° |
| 2026-05-09 07:16 | 64.10731 | -19.31734 | 11314 ft | 141 kts | 82° |
| 2026-05-09 07:17 | 64.10701 | -19.29496 | 11316 ft | 141 kts | 82° |
| 2026-05-09 07:17 | 64.10670 | -19.27249 | 11312 ft | 141 kts | 82° |
| 2026-05-09 07:17 | 64.10638 | -19.25010 | 11316 ft | 141 kts | 82° |
| 2026-05-09 07:17 | 64.10602 | -19.22741 | 11324 ft | 143 kts | 82° |
| 2026-05-09 07:18 | 64.10574 | -19.20477 | 11324 ft | 142 kts | 82° |
| 2026-05-09 07:18 | 64.10541 | -19.18249 | 11322 ft | 142 kts | 82° |
| 2026-05-09 07:18 | 64.10507 | -19.16001 | 11320 ft | 141 kts | 82° |
| 2026-05-09 07:18 | 64.10473 | -19.13765 | 11318 ft | 140 kts | 82° |
| 2026-05-09 07:19 | 64.10440 | -19.11538 | 11315 ft | 140 kts | 82° |
| 2026-05-09 07:19 | 64.10406 | -19.09316 | 11314 ft | 140 kts | 82° |
| 2026-05-09 07:19 | 64.10373 | -19.07100 | 11312 ft | 139 kts | 82° |
| 2026-05-09 07:19 | 64.10339 | -19.04884 | 11315 ft | 140 kts | 82° |
| 2026-05-09 07:20 | 64.10302 | -19.02658 | 11313 ft | 139 kts | 81° |
| 2026-05-09 07:20 | 64.10269 | -19.00440 | 11312 ft | 139 kts | 82° |
| 2026-05-09 07:20 | 64.10233 | -18.98223 | 11313 ft | 140 kts | 82° |
| 2026-05-09 07:20 | 64.10198 | -18.95999 | 11314 ft | 140 kts | 82° |
| 2026-05-09 07:21 | 64.10161 | -18.93779 | 11302 ft | 137 kts | 82° |
| 2026-05-09 07:21 | 64.10126 | -18.91635 | 11312 ft | 135 kts | 82° |
| 2026-05-09 07:21 | 64.10090 | -18.89471 | 11312 ft | 137 kts | 81° |
| 2026-05-09 07:21 | 64.10054 | -18.87294 | 11314 ft | 137 kts | 82° |
| 2026-05-09 07:22 | 64.10016 | -18.85107 | 11316 ft | 138 kts | 81° |
| 2026-05-09 07:22 | 64.09981 | -18.82917 | 11316 ft | 138 kts | 82° |
| 2026-05-09 07:22 | 64.09943 | -18.80725 | 11317 ft | 138 kts | 82° |
| 2026-05-09 07:22 | 64.09905 | -18.78525 | 11320 ft | 139 kts | 82° |
| 2026-05-09 07:23 | 64.09866 | -18.76307 | 11318 ft | 140 kts | 82° |
| 2026-05-09 07:23 | 64.09826 | -18.74090 | 11316 ft | 139 kts | 82° |
| 2026-05-09 07:23 | 64.09787 | -18.71887 | 11315 ft | 138 kts | 82° |
| 2026-05-09 07:23 | 64.09748 | -18.69688 | 11308 ft | 138 kts | 82° |
| 2026-05-09 07:24 | 64.09709 | -18.67504 | 11308 ft | 137 kts | 82° |
| 2026-05-09 07:24 | 64.09669 | -18.65319 | 11308 ft | 138 kts | 82° |
| 2026-05-09 07:24 | 64.09629 | -18.63133 | 11303 ft | 136 kts | 82° |
| 2026-05-09 07:24 | 64.09589 | -18.61007 | 11309 ft | 135 kts | 82° |
| 2026-05-09 07:25 | 64.09549 | -18.58860 | 11314 ft | 135 kts | 82° |
| 2026-05-09 07:25 | 64.09509 | -18.56677 | 11314 ft | 135 kts | 82° |
| 2026-05-09 07:25 | 64.09468 | -18.54549 | 11315 ft | 136 kts | 82° |
| 2026-05-09 07:25 | 64.09427 | -18.52378 | 11320 ft | 138 kts | 82° |
| 2026-05-09 07:26 | 64.09385 | -18.50181 | 11319 ft | 138 kts | 83° |
| 2026-05-09 07:26 | 64.09341 | -18.48003 | 11317 ft | 136 kts | 82° |
| 2026-05-09 07:26 | 64.09300 | -18.45848 | 11319 ft | 136 kts | 82° |
| 2026-05-09 07:26 | 64.09257 | -18.43669 | 11324 ft | 138 kts | 82° |
| 2026-05-09 07:27 | 64.09213 | -18.41460 | 11321 ft | 139 kts | 82° |
| 2026-05-09 07:27 | 64.09171 | -18.39300 | 11338 ft | 133 kts | 82° |
| 2026-05-09 07:27 | 64.09124 | -18.37171 | 11332 ft | 134 kts | 83° |
| 2026-05-09 07:27 | 64.09082 | -18.35037 | 11328 ft | 135 kts | 83° |
| 2026-05-09 07:28 | 64.09040 | -18.32881 | 11332 ft | 136 kts | 83° |
| 2026-05-09 07:28 | 64.08995 | -18.30724 | 11325 ft | 135 kts | 83° |
| 2026-05-09 07:28 | 64.08950 | -18.28589 | 11325 ft | 134 kts | 83° |
| 2026-05-09 07:28 | 64.08906 | -18.26448 | 11322 ft | 135 kts | 83° |
| 2026-05-09 07:29 | 64.08861 | -18.24302 | 11319 ft | 135 kts | 82° |
| 2026-05-09 07:29 | 64.08815 | -18.22154 | 11321 ft | 136 kts | 83° |
| 2026-05-09 07:29 | 64.08769 | -18.19995 | 11321 ft | 136 kts | 83° |
| 2026-05-09 07:29 | 64.08723 | -18.17841 | 11320 ft | 136 kts | 83° |
| 2026-05-09 07:30 | 64.08677 | -18.15691 | 11317 ft | 135 kts | 83° |
| 2026-05-09 07:30 | 64.08630 | -18.13541 | 11317 ft | 135 kts | 83° |
| 2026-05-09 07:30 | 64.08598 | -18.12117 | 11317 ft | 136 kts | 83° |
| 2026-05-09 07:30 | 64.08552 | -18.09968 | 11316 ft | 135 kts | 83° |
| 2026-05-09 07:31 | 64.08504 | -18.07818 | 11315 ft | 135 kts | 83° |
| 2026-05-09 07:31 | 64.08456 | -18.05671 | 11316 ft | 135 kts | 83° |
| 2026-05-09 07:31 | 64.08407 | -18.03515 | 11315 ft | 136 kts | 83° |
| 2026-05-09 07:31 | 64.08358 | -18.01366 | 11315 ft | 135 kts | 83° |
| 2026-05-09 07:32 | 64.08112 | -17.99269 | 11308 ft | 144 kts | 125° |
| 2026-05-09 07:32 | 64.07509 | -17.97455 | 11320 ft | 143 kts | 123° |
| 2026-05-09 07:32 | 64.06918 | -17.95615 | 11322 ft | 144 kts | 124° |
| 2026-05-09 07:32 | 64.06323 | -17.93769 | 11323 ft | 144 kts | 124° |
| 2026-05-09 07:33 | 64.05724 | -17.91910 | 11316 ft | 145 kts | 124° |
| 2026-05-09 07:33 | 64.04541 | -17.88240 | 11315 ft | 143 kts | 124° |
| 2026-05-09 07:33 | 64.03950 | -17.86409 | 11316 ft | 143 kts | 124° |
| 2026-05-09 07:34 | 64.03358 | -17.84575 | 11311 ft | 144 kts | 124° |
| 2026-05-09 07:34 | 64.02760 | -17.82729 | 11312 ft | 145 kts | 124° |
| 2026-05-09 07:34 | 64.02159 | -17.80871 | 11314 ft | 146 kts | 124° |
| 2026-05-09 07:34 | 64.01566 | -17.79038 | 11304 ft | 145 kts | 124° |
| 2026-05-09 07:35 | 64.00967 | -17.77190 | 11305 ft | 145 kts | 124° |
| 2026-05-09 07:35 | 64.00368 | -17.75343 | 11306 ft | 145 kts | 124° |
| 2026-05-09 07:35 | 63.99769 | -17.73500 | 11303 ft | 144 kts | 124° |
| 2026-05-09 07:35 | 63.99175 | -17.71669 | 11303 ft | 144 kts | 125° |
| 2026-05-09 07:36 | 63.98582 | -17.69842 | 11294 ft | 142 kts | 124° |
| 2026-05-09 07:36 | 63.98005 | -17.68067 | 11297 ft | 138 kts | 124° |
| 2026-05-09 07:36 | 63.97433 | -17.66312 | 11299 ft | 139 kts | 124° |
| 2026-05-09 07:36 | 63.96854 | -17.64537 | 11301 ft | 140 kts | 124° |
| 2026-05-09 07:37 | 63.96271 | -17.62750 | 11307 ft | 142 kts | 124° |
| 2026-05-09 07:37 | 63.95682 | -17.60947 | 11307 ft | 142 kts | 124° |
| 2026-05-09 07:37 | 63.95099 | -17.59158 | 11304 ft | 139 kts | 124° |
| 2026-05-09 07:37 | 63.94517 | -17.57382 | 11304 ft | 141 kts | 124° |
| 2026-05-09 07:38 | 63.93932 | -17.55593 | 11307 ft | 141 kts | 124° |
| 2026-05-09 07:38 | 63.93342 | -17.53792 | 11308 ft | 142 kts | 125° |
| 2026-05-09 07:38 | 63.92750 | -17.51984 | 11309 ft | 143 kts | 125° |
| 2026-05-09 07:38 | 63.92156 | -17.50173 | 11302 ft | 143 kts | 125° |
| 2026-05-09 07:39 | 63.91559 | -17.48355 | 11293 ft | 144 kts | 125° |
| 2026-05-09 07:39 | 63.90959 | -17.46529 | 11294 ft | 144 kts | 125° |
| 2026-05-09 07:39 | 63.90357 | -17.44699 | 11294 ft | 145 kts | 125° |
| 2026-05-09 07:39 | 63.89762 | -17.42890 | 11295 ft | 145 kts | 125° |
| 2026-05-09 07:40 | 63.89157 | -17.41050 | 11313 ft | 146 kts | 125° |
| 2026-05-09 07:40 | 63.88545 | -17.39196 | 11303 ft | 147 kts | 125° |
| 2026-05-09 07:40 | 63.87934 | -17.37345 | 11302 ft | 146 kts | 125° |
| 2026-05-09 07:40 | 63.87325 | -17.35500 | 11302 ft | 146 kts | 125° |
| 2026-05-09 07:41 | 63.86715 | -17.33653 | 11301 ft | 146 kts | 125° |
| 2026-05-09 07:41 | 63.86104 | -17.31804 | 11301 ft | 146 kts | 125° |
| 2026-05-09 07:41 | 63.85493 | -17.29959 | 11301 ft | 146 kts | 125° |
| 2026-05-09 07:41 | 63.84881 | -17.28111 | 11301 ft | 147 kts | 125° |
| 2026-05-09 07:42 | 63.84269 | -17.26266 | 11301 ft | 146 kts | 125° |
| 2026-05-09 07:42 | 63.83657 | -17.24421 | 11301 ft | 146 kts | 125° |
| 2026-05-09 07:42 | 63.83044 | -17.22577 | 11301 ft | 146 kts | 125° |
| 2026-05-09 07:42 | 63.82432 | -17.20732 | 11301 ft | 147 kts | 125° |
| 2026-05-09 07:43 | 63.81819 | -17.18889 | 11299 ft | 147 kts | 125° |
| 2026-05-09 07:43 | 63.81206 | -17.17045 | 11299 ft | 147 kts | 125° |
| 2026-05-09 07:43 | 63.80592 | -17.15205 | 11299 ft | 147 kts | 125° |
| 2026-05-09 07:43 | 63.79978 | -17.13365 | 11299 ft | 147 kts | 125° |
| 2026-05-09 07:44 | 63.79364 | -17.11522 | 11302 ft | 147 kts | 125° |
| 2026-05-09 07:44 | 63.78750 | -17.09684 | 11302 ft | 147 kts | 125° |
| 2026-05-09 07:44 | 63.78135 | -17.07843 | 11302 ft | 147 kts | 125° |
| 2026-05-09 07:44 | 63.77519 | -17.06002 | 11302 ft | 147 kts | 125° |
| 2026-05-09 07:45 | 63.76903 | -17.04163 | 11299 ft | 147 kts | 125° |
| 2026-05-09 07:45 | 63.76286 | -17.02323 | 11299 ft | 147 kts | 125° |
| 2026-05-09 07:45 | 63.75670 | -17.00484 | 11299 ft | 147 kts | 126° |
| 2026-05-09 07:45 | 63.75053 | -16.98644 | 11299 ft | 147 kts | 125° |
| 2026-05-09 07:46 | 63.74436 | -16.96807 | 11295 ft | 147 kts | 125° |
| 2026-05-09 07:46 | 63.73818 | -16.94968 | 11295 ft | 147 kts | 125° |
| 2026-05-09 07:46 | 63.73199 | -16.93130 | 11292 ft | 147 kts | 125° |
| 2026-05-09 07:46 | 63.72581 | -16.91295 | 11292 ft | 147 kts | 126° |
| 2026-05-09 07:47 | 63.71963 | -16.89458 | 11292 ft | 147 kts | 126° |
| 2026-05-09 07:47 | 63.71345 | -16.87625 | 11292 ft | 147 kts | 126° |
| 2026-05-09 07:47 | 63.70726 | -16.85791 | 11292 ft | 147 kts | 125° |
| 2026-05-09 07:47 | 63.70107 | -16.83960 | 11292 ft | 147 kts | 125° |
| 2026-05-09 07:48 | 63.69487 | -16.82127 | 11291 ft | 147 kts | 126° |
| 2026-05-09 07:48 | 63.68867 | -16.80293 | 11290 ft | 147 kts | 126° |
| 2026-05-09 07:48 | 63.68256 | -16.78487 | 11290 ft | 147 kts | 126° |
| 2026-05-09 07:48 | 63.67627 | -16.76632 | 11290 ft | 147 kts | 126° |
| 2026-05-09 07:49 | 63.67007 | -16.74804 | 11293 ft | 147 kts | 126° |
| 2026-05-09 07:49 | 63.66394 | -16.72999 | 11292 ft | 147 kts | 126° |
| 2026-05-09 07:49 | 63.65773 | -16.71171 | 11292 ft | 147 kts | 126° |
| 2026-05-09 07:49 | 63.65152 | -16.69344 | 11292 ft | 147 kts | 126° |
| 2026-05-09 07:50 | 63.64531 | -16.67515 | 11287 ft | 147 kts | 126° |
| 2026-05-09 07:50 | 63.63908 | -16.65687 | 11284 ft | 147 kts | 126° |
| 2026-05-09 07:50 | 63.63285 | -16.63862 | 11284 ft | 147 kts | 126° |
| 2026-05-09 07:50 | 63.62663 | -16.62037 | 11283 ft | 147 kts | 126° |
| 2026-05-09 07:51 | 63.62040 | -16.60213 | 11283 ft | 147 kts | 126° |
| 2026-05-09 07:51 | 63.61418 | -16.58390 | 11282 ft | 147 kts | 126° |
| 2026-05-09 07:51 | 63.60797 | -16.56574 | 11282 ft | 147 kts | 126° |
| 2026-05-09 07:51 | 63.60175 | -16.54757 | 11282 ft | 147 kts | 126° |
| 2026-05-09 07:52 | 63.59553 | -16.52943 | 11284 ft | 147 kts | 126° |
| 2026-05-09 07:52 | 63.58931 | -16.51128 | 11284 ft | 147 kts | 126° |
| 2026-05-09 07:52 | 63.58310 | -16.49313 | 11285 ft | 147 kts | 126° |
| 2026-05-09 07:52 | 63.57686 | -16.47495 | 11285 ft | 147 kts | 126° |
| 2026-05-09 07:53 | 63.57060 | -16.45674 | 11282 ft | 147 kts | 126° |
| 2026-05-09 07:53 | 63.56435 | -16.43857 | 11281 ft | 147 kts | 126° |
| 2026-05-09 07:53 | 63.55810 | -16.42042 | 11281 ft | 147 kts | 126° |
| 2026-05-09 07:53 | 63.55185 | -16.40228 | 11280 ft | 147 kts | 126° |
| 2026-05-09 07:54 | 63.54561 | -16.38416 | 11280 ft | 147 kts | 126° |
| 2026-05-09 07:54 | 63.53937 | -16.36606 | 11280 ft | 147 kts | 126° |
| 2026-05-09 07:54 | 63.53312 | -16.34796 | 11280 ft | 147 kts | 126° |
| 2026-05-09 07:54 | 63.52687 | -16.32987 | 11280 ft | 147 kts | 126° |
| 2026-05-09 07:55 | 63.52062 | -16.31181 | 11280 ft | 147 kts | 126° |
| 2026-05-09 07:55 | 63.51437 | -16.29374 | 11279 ft | 147 kts | 126° |
| 2026-05-09 07:55 | 63.50813 | -16.27570 | 11279 ft | 147 kts | 126° |
| 2026-05-09 07:55 | 63.50188 | -16.25767 | 11279 ft | 147 kts | 126° |
| 2026-05-09 07:56 | 63.49563 | -16.23967 | 11279 ft | 146 kts | 126° |
| 2026-05-09 07:56 | 63.48938 | -16.22168 | 11279 ft | 146 kts | 126° |
| 2026-05-09 07:56 | 63.48313 | -16.20370 | 11279 ft | 146 kts | 127° |
| 2026-05-09 07:56 | 63.47689 | -16.18572 | 11279 ft | 146 kts | 127° |
| 2026-05-09 07:57 | 63.47064 | -16.16776 | 11279 ft | 146 kts | 126° |
| 2026-05-09 07:57 | 63.46439 | -16.14980 | 11279 ft | 146 kts | 126° |
| 2026-05-09 07:57 | 63.45812 | -16.13184 | 11279 ft | 146 kts | 126° |
| 2026-05-09 07:57 | 63.45185 | -16.11388 | 11278 ft | 147 kts | 126° |
| 2026-05-09 07:58 | 63.44557 | -16.09585 | 11283 ft | 147 kts | 127° |
| 2026-05-09 07:58 | 63.43933 | -16.07801 | 11281 ft | 148 kts | 126° |
| 2026-05-09 07:58 | 63.43300 | -16.05989 | 11282 ft | 148 kts | 126° |
| 2026-05-09 07:58 | 63.42665 | -16.04176 | 11282 ft | 148 kts | 126° |
| 2026-05-09 07:59 | 63.42030 | -16.02364 | 11282 ft | 148 kts | 126° |
| 2026-05-09 07:59 | 63.41394 | -16.00549 | 11282 ft | 148 kts | 127° |
| 2026-05-09 07:59 | 63.40759 | -15.98738 | 11282 ft | 148 kts | 127° |
| 2026-05-09 07:59 | 63.40123 | -15.96926 | 11282 ft | 148 kts | 127° |
| 2026-05-09 08:00 | 63.39486 | -15.95113 | 11282 ft | 148 kts | 126° |
| 2026-05-09 08:00 | 63.38850 | -15.93305 | 11281 ft | 148 kts | 127° |
| 2026-05-09 08:00 | 63.38212 | -15.91492 | 11281 ft | 149 kts | 127° |
| 2026-05-09 08:00 | 63.37573 | -15.89678 | 11283 ft | 149 kts | 127° |
| 2026-05-09 08:01 | 63.36932 | -15.87859 | 11284 ft | 149 kts | 127° |
| 2026-05-09 08:01 | 63.36290 | -15.86039 | 11284 ft | 149 kts | 127° |
| 2026-05-09 08:01 | 63.35649 | -15.84224 | 11283 ft | 149 kts | 127° |
| 2026-05-09 08:01 | 63.35007 | -15.82409 | 11283 ft | 149 kts | 127° |
| 2026-05-09 08:02 | 63.34367 | -15.80599 | 11282 ft | 149 kts | 127° |
| 2026-05-09 08:02 | 63.33726 | -15.78786 | 11282 ft | 149 kts | 127° |
| 2026-05-09 08:02 | 63.33087 | -15.76980 | 11282 ft | 149 kts | 127° |
| 2026-05-09 08:02 | 63.32445 | -15.75171 | 11281 ft | 149 kts | 127° |
| 2026-05-09 08:03 | 63.31804 | -15.73365 | 11281 ft | 149 kts | 127° |
| 2026-05-09 08:03 | 63.31162 | -15.71558 | 11282 ft | 149 kts | 127° |
| 2026-05-09 08:03 | 63.30519 | -15.69746 | 11282 ft | 149 kts | 127° |
| 2026-05-09 08:03 | 63.29876 | -15.67935 | 11282 ft | 149 kts | 127° |
| 2026-05-09 08:04 | 63.29239 | -15.66147 | 11279 ft | 149 kts | 127° |
| 2026-05-09 08:04 | 63.28593 | -15.64335 | 11279 ft | 149 kts | 127° |
| 2026-05-09 08:04 | 63.27947 | -15.62525 | 11279 ft | 150 kts | 127° |
| 2026-05-09 08:04 | 63.27302 | -15.60716 | 11279 ft | 150 kts | 127° |
| 2026-05-09 08:05 | 63.26656 | -15.58904 | 11281 ft | 150 kts | 127° |
| 2026-05-09 08:05 | 63.26009 | -15.57094 | 11281 ft | 150 kts | 127° |
| 2026-05-09 08:05 | 63.25362 | -15.55284 | 11280 ft | 150 kts | 127° |
| 2026-05-09 08:05 | 63.24714 | -15.53475 | 11280 ft | 150 kts | 127° |
| 2026-05-09 08:06 | 63.24066 | -15.51666 | 11281 ft | 150 kts | 127° |
| 2026-05-09 08:06 | 63.23418 | -15.49858 | 11281 ft | 150 kts | 127° |
| 2026-05-09 08:06 | 63.22770 | -15.48050 | 11281 ft | 150 kts | 127° |
| 2026-05-09 08:06 | 63.22122 | -15.46246 | 11281 ft | 150 kts | 127° |
| 2026-05-09 08:07 | 63.21473 | -15.44443 | 11281 ft | 150 kts | 127° |
| 2026-05-09 08:07 | 63.20825 | -15.42640 | 11285 ft | 149 kts | 127° |
| 2026-05-09 08:07 | 63.20179 | -15.40843 | 11282 ft | 149 kts | 127° |
| 2026-05-09 08:07 | 63.19531 | -15.39044 | 11282 ft | 149 kts | 127° |
| 2026-05-09 08:08 | 63.18882 | -15.37243 | 11278 ft | 150 kts | 127° |
| 2026-05-09 08:08 | 63.18232 | -15.35442 | 11278 ft | 150 kts | 127° |
| 2026-05-09 08:08 | 63.17581 | -15.33641 | 11278 ft | 150 kts | 127° |
| 2026-05-09 08:08 | 63.16930 | -15.31841 | 11278 ft | 150 kts | 127° |
| 2026-05-09 08:09 | 63.16279 | -15.30040 | 11291 ft | 150 kts | 127° |
| 2026-05-09 08:09 | 63.15629 | -15.28242 | 11298 ft | 150 kts | 127° |
| 2026-05-09 08:09 | 63.14974 | -15.26433 | 11290 ft | 151 kts | 127° |
| 2026-05-09 08:09 | 63.14319 | -15.24628 | 11290 ft | 150 kts | 127° |
| 2026-05-09 08:10 | 63.13665 | -15.22826 | 11292 ft | 150 kts | 127° |
| 2026-05-09 08:10 | 63.13011 | -15.21025 | 11291 ft | 150 kts | 127° |
| 2026-05-09 08:10 | 63.12357 | -15.19224 | 11291 ft | 150 kts | 127° |
| 2026-05-09 08:10 | 63.11702 | -15.17423 | 11291 ft | 150 kts | 127° |
| 2026-05-09 08:11 | 63.11048 | -15.15627 | 11290 ft | 150 kts | 127° |
| 2026-05-09 08:11 | 63.10394 | -15.13833 | 11290 ft | 150 kts | 127° |
| 2026-05-09 08:11 | 63.09740 | -15.12039 | 11290 ft | 150 kts | 127° |
| 2026-05-09 08:11 | 63.09087 | -15.10246 | 11290 ft | 150 kts | 127° |
| 2026-05-09 08:12 | 63.07777 | -15.06660 | 11287 ft | 150 kts | 127° |
| 2026-05-09 08:12 | 63.07122 | -15.04872 | 11287 ft | 150 kts | 127° |
| 2026-05-09 08:12 | 63.06475 | -15.03104 | 11286 ft | 150 kts | 127° |
| 2026-05-09 08:13 | 63.05820 | -15.01315 | 11289 ft | 150 kts | 127° |
| 2026-05-09 08:13 | 63.05164 | -14.99526 | 11289 ft | 150 kts | 127° |
| 2026-05-09 08:13 | 63.04508 | -14.97736 | 11288 ft | 150 kts | 127° |
| 2026-05-09 08:13 | 63.03851 | -14.95947 | 11288 ft | 150 kts | 127° |
| 2026-05-09 08:14 | 63.03194 | -14.94161 | 11287 ft | 150 kts | 127° |
| 2026-05-09 08:14 | 63.02537 | -14.92373 | 11287 ft | 150 kts | 127° |
| 2026-05-09 08:14 | 63.01880 | -14.90587 | 11279 ft | 150 kts | 127° |
| 2026-05-09 08:14 | 63.01222 | -14.88801 | 11278 ft | 150 kts | 127° |
| 2026-05-09 08:15 | 63.00564 | -14.87016 | 11287 ft | 150 kts | 127° |
| 2026-05-09 08:15 | 62.99905 | -14.85232 | 11287 ft | 150 kts | 127° |
| 2026-05-09 08:15 | 62.99247 | -14.83450 | 11278 ft | 150 kts | 127° |
| 2026-05-09 08:15 | 62.98589 | -14.81667 | 11287 ft | 150 kts | 127° |
| 2026-05-09 08:16 | 62.97930 | -14.79885 | 11287 ft | 150 kts | 127° |
| 2026-05-09 08:16 | 62.97271 | -14.78104 | 11287 ft | 150 kts | 127° |
| 2026-05-09 08:16 | 62.96614 | -14.76329 | 11290 ft | 149 kts | 127° |
| 2026-05-09 08:16 | 62.95957 | -14.74559 | 11287 ft | 149 kts | 127° |
| 2026-05-09 08:17 | 62.95301 | -14.72790 | 11286 ft | 149 kts | 127° |
| 2026-05-09 08:17 | 62.94645 | -14.71022 | 11286 ft | 149 kts | 127° |
| 2026-05-09 08:17 | 62.93988 | -14.69253 | 11286 ft | 149 kts | 127° |
| 2026-05-09 08:17 | 62.93330 | -14.67485 | 11286 ft | 149 kts | 127° |
| 2026-05-09 08:18 | 62.92673 | -14.65720 | 11283 ft | 149 kts | 127° |
| 2026-05-09 08:18 | 62.92014 | -14.63951 | 11283 ft | 150 kts | 127° |
| 2026-05-09 08:18 | 62.91356 | -14.62186 | 11283 ft | 150 kts | 127° |
| 2026-05-09 08:18 | 62.90706 | -14.60442 | 11283 ft | 150 kts | 127° |
| 2026-05-09 08:19 | 62.90047 | -14.58676 | 11285 ft | 150 kts | 127° |
| 2026-05-09 08:19 | 62.89387 | -14.56909 | 11285 ft | 150 kts | 127° |
| 2026-05-09 08:19 | 62.88941 | -14.55718 | 11285 ft | 150 kts | 127° |
| 2026-05-09 08:19 | 62.88067 | -14.53382 | 11285 ft | 150 kts | 127° |
| 2026-05-09 08:20 | 62.87622 | -14.52190 | 11285 ft | 150 kts | 127° |
| 2026-05-09 08:20 | 62.86747 | -14.49857 | 11284 ft | 150 kts | 127° |
| 2026-05-09 08:20 | 62.86300 | -14.48667 | 11284 ft | 150 kts | 127° |
| 2026-05-09 08:20 | 62.85639 | -14.46905 | 11284 ft | 150 kts | 127° |
| 2026-05-09 08:21 | 62.84979 | -14.45145 | 11283 ft | 150 kts | 127° |
| 2026-05-09 08:21 | 62.84317 | -14.43384 | 11282 ft | 150 kts | 127° |
| 2026-05-09 08:21 | 62.83655 | -14.41625 | 11282 ft | 150 kts | 127° |
| 2026-05-09 08:21 | 62.82993 | -14.39867 | 11282 ft | 150 kts | 127° |
| 2026-05-09 08:22 | 62.82339 | -14.38132 | 11281 ft | 150 kts | 127° |
| 2026-05-09 08:22 | 62.81677 | -14.36374 | 11281 ft | 150 kts | 128° |
| 2026-05-09 08:22 | 62.81014 | -14.34617 | 11281 ft | 150 kts | 127° |
| 2026-05-09 08:22 | 62.80351 | -14.32860 | 11281 ft | 150 kts | 127° |
| 2026-05-09 08:23 | 62.79687 | -14.31105 | 11283 ft | 150 kts | 127° |
| 2026-05-09 08:23 | 62.79023 | -14.29351 | 11284 ft | 150 kts | 127° |
| 2026-05-09 08:23 | 62.78360 | -14.27597 | 11281 ft | 150 kts | 127° |
| 2026-05-09 08:23 | 62.77696 | -14.25844 | 11284 ft | 150 kts | 128° |
| 2026-05-09 08:24 | 62.77030 | -14.24088 | 11301 ft | 151 kts | 127° |
| 2026-05-09 08:24 | 62.76364 | -14.22331 | 11303 ft | 150 kts | 127° |
| 2026-05-09 08:24 | 62.75700 | -14.20583 | 11302 ft | 149 kts | 127° |
| 2026-05-09 08:24 | 62.75037 | -14.18838 | 11301 ft | 149 kts | 127° |
| 2026-05-09 08:25 | 62.74375 | -14.17097 | 11295 ft | 149 kts | 127° |
| 2026-05-09 08:25 | 62.73712 | -14.15353 | 11294 ft | 149 kts | 127° |
| 2026-05-09 08:25 | 62.73050 | -14.13616 | 11294 ft | 149 kts | 127° |
| 2026-05-09 08:25 | 62.72388 | -14.11879 | 11281 ft | 149 kts | 127° |
| 2026-05-09 08:26 | 62.71727 | -14.10147 | 11291 ft | 149 kts | 127° |
| 2026-05-09 08:26 | 62.71066 | -14.08416 | 11291 ft | 149 kts | 127° |
| 2026-05-09 08:26 | 62.70405 | -14.06685 | 11291 ft | 149 kts | 127° |
| 2026-05-09 08:26 | 62.69743 | -14.04953 | 11291 ft | 149 kts | 127° |
| 2026-05-09 08:27 | 62.69081 | -14.03222 | 11290 ft | 149 kts | 127° |
| 2026-05-09 08:27 | 62.68419 | -14.01493 | 11290 ft | 149 kts | 127° |
| 2026-05-09 08:27 | 62.67756 | -13.99763 | 11290 ft | 149 kts | 127° |
| 2026-05-09 08:27 | 62.67092 | -13.98033 | 11290 ft | 149 kts | 127° |
| 2026-05-09 08:28 | 62.66429 | -13.96304 | 11288 ft | 149 kts | 127° |
| 2026-05-09 08:28 | 62.65765 | -13.94575 | 11288 ft | 149 kts | 127° |
| 2026-05-09 08:28 | 62.65101 | -13.92849 | 11288 ft | 149 kts | 127° |
| 2026-05-09 08:28 | 62.64437 | -13.91123 | 11287 ft | 149 kts | 127° |
| 2026-05-09 08:29 | 62.63772 | -13.89397 | 11291 ft | 149 kts | 127° |
| 2026-05-09 08:29 | 62.63107 | -13.87670 | 11291 ft | 149 kts | 127° |
| 2026-05-09 08:29 | 62.62442 | -13.85945 | 11291 ft | 149 kts | 127° |
| 2026-05-09 08:29 | 62.61778 | -13.84222 | 11291 ft | 149 kts | 127° |
| 2026-05-09 08:30 | 62.61112 | -13.82499 | 11288 ft | 149 kts | 127° |
| 2026-05-09 08:30 | 62.60447 | -13.80777 | 11291 ft | 149 kts | 127° |
| 2026-05-09 08:30 | 62.59781 | -13.79058 | 11291 ft | 149 kts | 127° |
| 2026-05-09 08:30 | 62.59116 | -13.77338 | 11291 ft | 149 kts | 127° |
| 2026-05-09 08:31 | 62.58448 | -13.75613 | 11290 ft | 149 kts | 127° |
| 2026-05-09 08:31 | 62.57781 | -13.73891 | 11290 ft | 149 kts | 127° |
| 2026-05-09 08:31 | 62.57112 | -13.72168 | 11290 ft | 149 kts | 127° |
| 2026-05-09 08:31 | 62.56443 | -13.70446 | 11282 ft | 149 kts | 127° |
| 2026-05-09 08:32 | 62.55775 | -13.68726 | 11293 ft | 149 kts | 127° |
| 2026-05-09 08:32 | 62.55107 | -13.67008 | 11293 ft | 149 kts | 128° |
| 2026-05-09 08:32 | 62.53771 | -13.63574 | 11290 ft | 149 kts | 127° |
| 2026-05-09 08:33 | 62.53102 | -13.61860 | 11281 ft | 149 kts | 127° |
| 2026-05-09 08:33 | 62.52433 | -13.60145 | 11289 ft | 149 kts | 127° |
| 2026-05-09 08:33 | 62.51773 | -13.58453 | 11290 ft | 149 kts | 128° |
| 2026-05-09 08:33 | 62.51105 | -13.56742 | 11275 ft | 149 kts | 128° |
| 2026-05-09 08:34 | 62.50435 | -13.55028 | 11290 ft | 149 kts | 127° |
| 2026-05-09 08:34 | 62.49765 | -13.53316 | 11289 ft | 149 kts | 127° |
| 2026-05-09 08:34 | 62.49095 | -13.51607 | 11291 ft | 149 kts | 127° |
| 2026-05-09 08:34 | 62.48425 | -13.49897 | 11290 ft | 149 kts | 128° |
| 2026-05-09 08:35 | 62.47756 | -13.48189 | 11282 ft | 149 kts | 128° |
| 2026-05-09 08:35 | 62.47091 | -13.46494 | 11291 ft | 148 kts | 127° |
| 2026-05-09 08:35 | 62.46424 | -13.44795 | 11291 ft | 148 kts | 127° |
| 2026-05-09 08:35 | 62.45756 | -13.43096 | 11291 ft | 148 kts | 127° |
| 2026-05-09 08:36 | 62.45088 | -13.41398 | 11291 ft | 148 kts | 127° |
| 2026-05-09 08:36 | 62.44420 | -13.39700 | 11291 ft | 148 kts | 127° |
| 2026-05-09 08:36 | 62.43751 | -13.38000 | 11291 ft | 149 kts | 127° |
| 2026-05-09 08:36 | 62.43081 | -13.36302 | 11291 ft | 149 kts | 127° |
| 2026-05-09 08:37 | 62.42412 | -13.34605 | 11291 ft | 149 kts | 127° |
| 2026-05-09 08:37 | 62.41741 | -13.32906 | 11290 ft | 149 kts | 127° |
| 2026-05-09 08:37 | 62.41070 | -13.31210 | 11290 ft | 149 kts | 128° |
| 2026-05-09 08:37 | 62.40400 | -13.29514 | 11290 ft | 149 kts | 128° |
| 2026-05-09 08:38 | 62.39729 | -13.27817 | 11293 ft | 149 kts | 128° |
| 2026-05-09 08:38 | 62.39058 | -13.26123 | 11315 ft | 148 kts | 127° |
| 2026-05-09 08:38 | 62.38389 | -13.24436 | 11309 ft | 147 kts | 127° |
| 2026-05-09 08:38 | 62.37725 | -13.22762 | 11306 ft | 146 kts | 127° |
| 2026-05-09 08:39 | 62.37064 | -13.21097 | 11296 ft | 146 kts | 127° |
| 2026-05-09 08:39 | 62.36406 | -13.19438 | 11304 ft | 145 kts | 127° |
| 2026-05-09 08:39 | 62.35749 | -13.17784 | 11303 ft | 145 kts | 127° |
| 2026-05-09 08:39 | 62.35093 | -13.16135 | 11302 ft | 145 kts | 127° |
| 2026-05-09 08:40 | 62.34437 | -13.14488 | 11292 ft | 145 kts | 127° |
| 2026-05-09 08:40 | 62.33782 | -13.12843 | 11291 ft | 145 kts | 127° |
| 2026-05-09 08:40 | 62.33127 | -13.11199 | 11300 ft | 145 kts | 127° |
| 2026-05-09 08:40 | 62.32472 | -13.09556 | 11299 ft | 145 kts | 127° |
| 2026-05-09 08:41 | 62.31816 | -13.07914 | 11300 ft | 145 kts | 127° |
| 2026-05-09 08:41 | 62.31161 | -13.06273 | 11300 ft | 145 kts | 127° |
| 2026-05-09 08:41 | 62.30504 | -13.04632 | 11291 ft | 145 kts | 127° |
| 2026-05-09 08:41 | 62.29849 | -13.02996 | 11299 ft | 145 kts | 127° |
| 2026-05-09 08:42 | 62.29193 | -13.01356 | 11301 ft | 145 kts | 128° |
| 2026-05-09 08:42 | 62.28537 | -12.99717 | 11301 ft | 145 kts | 128° |
| 2026-05-09 08:42 | 62.27881 | -12.98082 | 11301 ft | 145 kts | 127° |
| 2026-05-09 08:42 | 62.27225 | -12.96447 | 11293 ft | 144 kts | 127° |
| 2026-05-09 08:43 | 62.26568 | -12.94813 | 11287 ft | 144 kts | 127° |
| 2026-05-09 08:43 | 62.25912 | -12.93180 | 11295 ft | 145 kts | 128° |
| 2026-05-09 08:43 | 62.25256 | -12.91547 | 11295 ft | 145 kts | 128° |
| 2026-05-09 08:43 | 62.24599 | -12.89914 | 11294 ft | 145 kts | 128° |
| 2026-05-09 08:44 | 62.23941 | -12.88281 | 11296 ft | 145 kts | 127° |
| 2026-05-09 08:44 | 62.23284 | -12.86652 | 11296 ft | 145 kts | 127° |
| 2026-05-09 08:44 | 62.22628 | -12.85025 | 11291 ft | 144 kts | 127° |
| 2026-05-09 08:44 | 62.21972 | -12.83399 | 11284 ft | 144 kts | 128° |
| 2026-05-09 08:45 | 62.21315 | -12.81771 | 11283 ft | 144 kts | 128° |
| 2026-05-09 08:45 | 62.20657 | -12.80144 | 11292 ft | 145 kts | 127° |
| 2026-05-09 08:45 | 62.19999 | -12.78516 | 11292 ft | 145 kts | 127° |
| 2026-05-09 08:45 | 62.19339 | -12.76888 | 11286 ft | 145 kts | 127° |
| 2026-05-09 08:46 | 62.18681 | -12.75262 | 11282 ft | 145 kts | 128° |
| 2026-05-09 08:46 | 62.18021 | -12.73634 | 11290 ft | 145 kts | 128° |
| 2026-05-09 08:46 | 62.17361 | -12.72006 | 11289 ft | 145 kts | 128° |
| 2026-05-09 08:46 | 62.16702 | -12.70382 | 11290 ft | 145 kts | 128° |
| 2026-05-09 08:47 | 62.16050 | -12.68779 | 11289 ft | 145 kts | 127° |
| 2026-05-09 08:47 | 62.15389 | -12.67154 | 11289 ft | 145 kts | 128° |
| 2026-05-09 08:47 | 62.14728 | -12.65529 | 11281 ft | 145 kts | 128° |
| 2026-05-09 08:47 | 62.14068 | -12.63905 | 11290 ft | 145 kts | 128° |
| 2026-05-09 08:48 | 62.13407 | -12.62281 | 11294 ft | 145 kts | 128° |
| 2026-05-09 08:48 | 62.12745 | -12.60659 | 11294 ft | 145 kts | 128° |
| 2026-05-09 08:48 | 62.12082 | -12.59036 | 11294 ft | 145 kts | 128° |
| 2026-05-09 08:48 | 62.11420 | -12.57416 | 11293 ft | 145 kts | 128° |
| 2026-05-09 08:49 | 62.10758 | -12.55794 | 11281 ft | 145 kts | 128° |
| 2026-05-09 08:49 | 62.10096 | -12.54173 | 11289 ft | 145 kts | 128° |
| 2026-05-09 08:49 | 62.09432 | -12.52551 | 11289 ft | 145 kts | 128° |
| 2026-05-09 08:49 | 62.08770 | -12.50935 | 11289 ft | 145 kts | 128° |
| 2026-05-09 08:50 | 62.08107 | -12.49318 | 11294 ft | 144 kts | 128° |
| 2026-05-09 08:50 | 62.07444 | -12.47702 | 11293 ft | 145 kts | 128° |
| 2026-05-09 08:50 | 62.06781 | -12.46085 | 11293 ft | 145 kts | 128° |
| 2026-05-09 08:50 | 62.06117 | -12.44466 | 11293 ft | 145 kts | 128° |
| 2026-05-09 08:51 | 62.05452 | -12.42848 | 11298 ft | 145 kts | 128° |
| 2026-05-09 08:51 | 62.04787 | -12.41234 | 11298 ft | 145 kts | 128° |
| 2026-05-09 08:51 | 62.04122 | -12.39617 | 11298 ft | 145 kts | 128° |
| 2026-05-09 08:51 | 62.03456 | -12.37999 | 11297 ft | 145 kts | 128° |
| 2026-05-09 08:52 | 62.02791 | -12.36384 | 11294 ft | 145 kts | 128° |
| 2026-05-09 08:52 | 62.02125 | -12.34771 | 11294 ft | 145 kts | 128° |
| 2026-05-09 08:52 | 62.01458 | -12.33156 | 11294 ft | 145 kts | 128° |
| 2026-05-09 08:52 | 62.00791 | -12.31542 | 11294 ft | 145 kts | 128° |
| 2026-05-09 08:53 | 62.00122 | -12.29925 | 11298 ft | 146 kts | 129° |
| 2026-05-09 08:53 | 61.99456 | -12.28312 | 11307 ft | 145 kts | 129° |
| 2026-05-09 08:53 | 61.98792 | -12.26706 | 11306 ft | 144 kts | 129° |
| 2026-05-09 08:53 | 61.98129 | -12.25107 | 11301 ft | 144 kts | 129° |
| 2026-05-09 08:54 | 61.97468 | -12.23513 | 11297 ft | 144 kts | 129° |
| 2026-05-09 08:54 | 61.96808 | -12.21921 | 11297 ft | 144 kts | 129° |
| 2026-05-09 08:54 | 61.96148 | -12.20329 | 11296 ft | 143 kts | 129° |
| 2026-05-09 08:54 | 61.95487 | -12.18738 | 11290 ft | 143 kts | 129° |
| 2026-05-09 08:55 | 61.94827 | -12.17151 | 11298 ft | 143 kts | 129° |
| 2026-05-09 08:55 | 61.94167 | -12.15566 | 11290 ft | 143 kts | 129° |
| 2026-05-09 08:55 | 61.93506 | -12.13980 | 11297 ft | 143 kts | 129° |
| 2026-05-09 08:55 | 61.92847 | -12.12395 | 11297 ft | 143 kts | 129° |
| 2026-05-09 08:56 | 61.92187 | -12.10812 | 11283 ft | 143 kts | 129° |
| 2026-05-09 08:56 | 61.91527 | -12.09228 | 11291 ft | 143 kts | 129° |
| 2026-05-09 08:56 | 61.90866 | -12.07646 | 11285 ft | 143 kts | 129° |
| 2026-05-09 08:56 | 61.90213 | -12.06086 | 11291 ft | 143 kts | 129° |
| 2026-05-09 08:57 | 61.89553 | -12.04505 | 11295 ft | 143 kts | 130° |
| 2026-05-09 08:57 | 61.88893 | -12.02926 | 11295 ft | 143 kts | 130° |
| 2026-05-09 08:57 | 61.88231 | -12.01345 | 11295 ft | 143 kts | 130° |
| 2026-05-09 08:57 | 61.87569 | -11.99767 | 11300 ft | 143 kts | 129° |
| 2026-05-09 08:58 | 61.86908 | -11.98189 | 11299 ft | 143 kts | 129° |
| 2026-05-09 08:58 | 61.86246 | -11.96612 | 11299 ft | 143 kts | 130° |
| 2026-05-09 08:58 | 61.85584 | -11.95034 | 11300 ft | 143 kts | 130° |
| 2026-05-09 08:58 | 61.84922 | -11.93459 | 11300 ft | 143 kts | 130° |
| 2026-05-09 08:59 | 61.84260 | -11.91882 | 11300 ft | 143 kts | 130° |
| 2026-05-09 08:59 | 61.83596 | -11.90306 | 11299 ft | 143 kts | 129° |
| 2026-05-09 08:59 | 61.82933 | -11.88731 | 11300 ft | 143 kts | 130° |
| 2026-05-09 08:59 | 61.82270 | -11.87158 | 11294 ft | 143 kts | 130° |
| 2026-05-09 09:00 | 61.81607 | -11.85584 | 11298 ft | 143 kts | 130° |
| 2026-05-09 09:00 | 61.80945 | -11.84015 | 11292 ft | 143 kts | 130° |
| 2026-05-09 09:00 | 61.80282 | -11.82444 | 11305 ft | 143 kts | 130° |
| 2026-05-09 09:00 | 61.79616 | -11.80870 | 11305 ft | 144 kts | 130° |
| 2026-05-09 09:01 | 61.78948 | -11.79291 | 11307 ft | 144 kts | 130° |
| 2026-05-09 09:01 | 61.78281 | -11.77712 | 11301 ft | 144 kts | 130° |
| 2026-05-09 09:01 | 61.77614 | -11.76136 | 11309 ft | 144 kts | 130° |
| 2026-05-09 09:01 | 61.76946 | -11.74560 | 11309 ft | 144 kts | 130° |
| 2026-05-09 09:02 | 61.76279 | -11.72988 | 11299 ft | 144 kts | 130° |
| 2026-05-09 09:02 | 61.75612 | -11.71416 | 11301 ft | 144 kts | 130° |
| 2026-05-09 09:02 | 61.74945 | -11.69847 | 11307 ft | 144 kts | 130° |
| 2026-05-09 09:02 | 61.74278 | -11.68276 | 11298 ft | 144 kts | 130° |
| 2026-05-09 09:03 | 61.73612 | -11.66707 | 11307 ft | 144 kts | 130° |
| 2026-05-09 09:03 | 61.72944 | -11.65138 | 11295 ft | 143 kts | 130° |
| 2026-05-09 09:03 | 61.72281 | -11.63580 | 11305 ft | 143 kts | 130° |
| 2026-05-09 09:03 | 61.71617 | -11.62024 | 11305 ft | 143 kts | 130° |
| 2026-05-09 09:04 | 61.70952 | -11.60464 | 11295 ft | 143 kts | 130° |
| 2026-05-09 09:04 | 61.70287 | -11.58905 | 11305 ft | 143 kts | 130° |
| 2026-05-09 09:04 | 61.69622 | -11.57345 | 11305 ft | 143 kts | 130° |
| 2026-05-09 09:04 | 61.68956 | -11.55788 | 11304 ft | 143 kts | 130° |
| 2026-05-09 09:05 | 61.68289 | -11.54229 | 11300 ft | 143 kts | 130° |
| 2026-05-09 09:05 | 61.67847 | -11.53196 | 11303 ft | 143 kts | 130° |
| 2026-05-09 09:05 | 61.67180 | -11.51637 | 11295 ft | 143 kts | 130° |
| 2026-05-09 09:05 | 61.66513 | -11.50079 | 11303 ft | 143 kts | 130° |
| 2026-05-09 09:06 | 61.65846 | -11.48523 | 11297 ft | 143 kts | 130° |
| 2026-05-09 09:06 | 61.65178 | -11.46967 | 11307 ft | 143 kts | 130° |
| 2026-05-09 09:06 | 61.64510 | -11.45411 | 11307 ft | 143 kts | 130° |
| 2026-05-09 09:06 | 61.63842 | -11.43854 | 11297 ft | 143 kts | 130° |
| 2026-05-09 09:07 | 61.63173 | -11.42298 | 11297 ft | 143 kts | 130° |
| 2026-05-09 09:07 | 61.62504 | -11.40744 | 11296 ft | 143 kts | 130° |
| 2026-05-09 09:07 | 61.61835 | -11.39191 | 11305 ft | 143 kts | 130° |
| 2026-05-09 09:07 | 61.61165 | -11.37636 | 11318 ft | 144 kts | 131° |
| 2026-05-09 09:08 | 61.60496 | -11.36081 | 11319 ft | 143 kts | 131° |
| 2026-05-09 09:08 | 61.59828 | -11.34532 | 11318 ft | 143 kts | 131° |
| 2026-05-09 09:08 | 61.59160 | -11.32986 | 11317 ft | 143 kts | 131° |
| 2026-05-09 09:08 | 61.58495 | -11.31446 | 11317 ft | 142 kts | 131° |
| 2026-05-09 09:09 | 61.57830 | -11.29907 | 11314 ft | 142 kts | 131° |
| 2026-05-09 09:09 | 61.57165 | -11.28368 | 11312 ft | 142 kts | 131° |
| 2026-05-09 09:09 | 61.56508 | -11.26852 | 11319 ft | 142 kts | 131° |
| 2026-05-09 09:09 | 61.55844 | -11.25319 | 11319 ft | 142 kts | 131° |
| 2026-05-09 09:10 | 61.55179 | -11.23785 | 11316 ft | 142 kts | 131° |
| 2026-05-09 09:10 | 61.54513 | -11.22250 | 11316 ft | 142 kts | 131° |
| 2026-05-09 09:10 | 61.53846 | -11.20712 | 11316 ft | 142 kts | 131° |
| 2026-05-09 09:10 | 61.53179 | -11.19176 | 11310 ft | 142 kts | 131° |
| 2026-05-09 09:11 | 61.52513 | -11.17643 | 11316 ft | 142 kts | 131° |
| 2026-05-09 09:11 | 61.51847 | -11.16114 | 11315 ft | 142 kts | 131° |
| 2026-05-09 09:11 | 61.51181 | -11.14584 | 11315 ft | 142 kts | 131° |
| 2026-05-09 09:11 | 61.50515 | -11.13055 | 11309 ft | 142 kts | 131° |
| 2026-05-09 09:12 | 61.49850 | -11.11526 | 11306 ft | 142 kts | 131° |
| 2026-05-09 09:12 | 61.49183 | -11.09998 | 11305 ft | 142 kts | 131° |
| 2026-05-09 09:12 | 61.48516 | -11.08470 | 11313 ft | 142 kts | 131° |
| 2026-05-09 09:12 | 61.47849 | -11.06944 | 11314 ft | 142 kts | 131° |
| 2026-05-09 09:13 | 61.47183 | -11.05419 | 11305 ft | 142 kts | 131° |
| 2026-05-09 09:13 | 61.46517 | -11.03895 | 11306 ft | 142 kts | 131° |
| 2026-05-09 09:13 | 61.45849 | -11.02368 | 11306 ft | 142 kts | 131° |
| 2026-05-09 09:13 | 61.45181 | -11.00841 | 11298 ft | 142 kts | 131° |
| 2026-05-09 09:14 | 61.44511 | -10.99315 | 11310 ft | 143 kts | 131° |
| 2026-05-09 09:14 | 61.43840 | -10.97786 | 11303 ft | 143 kts | 131° |
| 2026-05-09 09:14 | 61.43169 | -10.96256 | 11310 ft | 143 kts | 131° |
| 2026-05-09 09:14 | 61.42497 | -10.94725 | 11310 ft | 143 kts | 131° |
| 2026-05-09 09:15 | 61.41825 | -10.93194 | 11309 ft | 143 kts | 131° |
| 2026-05-09 09:15 | 61.41152 | -10.91664 | 11301 ft | 143 kts | 131° |
| 2026-05-09 09:15 | 61.40479 | -10.90135 | 11309 ft | 143 kts | 131° |
| 2026-05-09 09:15 | 61.39805 | -10.88606 | 11309 ft | 143 kts | 131° |
| 2026-05-09 09:16 | 61.39131 | -10.87077 | 11309 ft | 143 kts | 131° |
| 2026-05-09 09:16 | 61.37783 | -10.84019 | 11309 ft | 143 kts | 131° |
| 2026-05-09 09:16 | 61.37107 | -10.82487 | 11300 ft | 144 kts | 131° |
| 2026-05-09 09:17 | 61.36431 | -10.80958 | 11309 ft | 143 kts | 131° |
| 2026-05-09 09:17 | 61.35755 | -10.79429 | 11309 ft | 143 kts | 131° |
| 2026-05-09 09:17 | 61.35088 | -10.77921 | 11308 ft | 143 kts | 131° |
| 2026-05-09 09:17 | 61.34413 | -10.76396 | 11308 ft | 143 kts | 131° |
| 2026-05-09 09:18 | 61.33737 | -10.74870 | 11308 ft | 143 kts | 131° |
| 2026-05-09 09:18 | 61.33061 | -10.73346 | 11308 ft | 143 kts | 131° |
| 2026-05-09 09:18 | 61.32385 | -10.71824 | 11308 ft | 143 kts | 131° |
| 2026-05-09 09:18 | 61.31708 | -10.70299 | 11308 ft | 143 kts | 131° |
| 2026-05-09 09:19 | 61.31032 | -10.68777 | 11305 ft | 143 kts | 131° |
| 2026-05-09 09:19 | 61.30357 | -10.67256 | 11298 ft | 143 kts | 131° |
| 2026-05-09 09:19 | 61.29680 | -10.65735 | 11298 ft | 143 kts | 131° |
| 2026-05-09 09:19 | 61.29003 | -10.64216 | 11305 ft | 143 kts | 131° |
| 2026-05-09 09:20 | 61.28326 | -10.62696 | 11305 ft | 143 kts | 131° |
| 2026-05-09 09:20 | 61.27649 | -10.61178 | 11305 ft | 143 kts | 131° |
| 2026-05-09 09:20 | 61.26972 | -10.59658 | 11306 ft | 143 kts | 131° |
| 2026-05-09 09:20 | 61.26296 | -10.58143 | 11306 ft | 143 kts | 131° |
| 2026-05-09 09:21 | 61.25618 | -10.56625 | 11306 ft | 143 kts | 131° |
| 2026-05-09 09:21 | 61.24940 | -10.55111 | 11306 ft | 143 kts | 131° |
| 2026-05-09 09:21 | 61.24262 | -10.53595 | 11306 ft | 143 kts | 131° |
| 2026-05-09 09:21 | 61.23584 | -10.52079 | 11306 ft | 143 kts | 131° |
| 2026-05-09 09:22 | 61.22905 | -10.50564 | 11303 ft | 143 kts | 131° |
| 2026-05-09 09:22 | 61.22226 | -10.49048 | 11303 ft | 143 kts | 131° |
| 2026-05-09 09:22 | 61.21546 | -10.47535 | 11319 ft | 143 kts | 132° |
| 2026-05-09 09:22 | 61.20869 | -10.46027 | 11318 ft | 142 kts | 132° |
| 2026-05-09 09:23 | 61.20196 | -10.44526 | 11314 ft | 142 kts | 132° |
| 2026-05-09 09:23 | 61.19524 | -10.43030 | 11313 ft | 142 kts | 132° |
| 2026-05-09 09:23 | 61.18853 | -10.41537 | 11313 ft | 141 kts | 132° |
| 2026-05-09 09:23 | 61.18182 | -10.40048 | 11312 ft | 141 kts | 132° |
| 2026-05-09 09:24 | 61.17512 | -10.38561 | 11314 ft | 141 kts | 132° |
| 2026-05-09 09:24 | 61.16842 | -10.37074 | 11319 ft | 141 kts | 132° |
| 2026-05-09 09:24 | 61.16173 | -10.35588 | 11319 ft | 141 kts | 133° |
| 2026-05-09 09:24 | 61.15502 | -10.34102 | 11318 ft | 141 kts | 132° |
| 2026-05-09 09:25 | 61.14832 | -10.32617 | 11313 ft | 141 kts | 132° |
| 2026-05-09 09:25 | 61.14161 | -10.31133 | 11313 ft | 141 kts | 132° |
| 2026-05-09 09:25 | 61.13490 | -10.29650 | 11313 ft | 141 kts | 132° |
| 2026-05-09 09:25 | 61.12819 | -10.28167 | 11312 ft | 141 kts | 133° |
| 2026-05-09 09:26 | 61.12149 | -10.26685 | 11315 ft | 141 kts | 133° |
| 2026-05-09 09:26 | 61.11478 | -10.25204 | 11304 ft | 141 kts | 133° |
| 2026-05-09 09:26 | 61.10806 | -10.23722 | 11314 ft | 141 kts | 132° |
| 2026-05-09 09:26 | 61.10134 | -10.22242 | 11314 ft | 141 kts | 132° |
| 2026-05-09 09:27 | 61.09463 | -10.20765 | 11305 ft | 141 kts | 133° |
| 2026-05-09 09:27 | 61.08791 | -10.19284 | 11311 ft | 141 kts | 133° |
| 2026-05-09 09:27 | 61.08119 | -10.17806 | 11311 ft | 141 kts | 133° |
| 2026-05-09 09:27 | 61.07447 | -10.16327 | 11305 ft | 141 kts | 133° |
| 2026-05-09 09:28 | 61.06774 | -10.14850 | 11307 ft | 141 kts | 132° |
| 2026-05-09 09:28 | 61.06110 | -10.13393 | 11311 ft | 141 kts | 133° |
| 2026-05-09 09:28 | 61.05437 | -10.11917 | 11313 ft | 141 kts | 133° |
| 2026-05-09 09:28 | 61.04763 | -10.10438 | 11313 ft | 141 kts | 133° |
| 2026-05-09 09:29 | 61.04090 | -10.08962 | 11305 ft | 141 kts | 133° |
| 2026-05-09 09:29 | 61.03416 | -10.07486 | 11303 ft | 141 kts | 133° |
| 2026-05-09 09:29 | 61.02743 | -10.06013 | 11309 ft | 141 kts | 133° |
| 2026-05-09 09:29 | 61.02068 | -10.04540 | 11305 ft | 141 kts | 133° |
| 2026-05-09 09:30 | 61.01394 | -10.03066 | 11311 ft | 141 kts | 133° |
| 2026-05-09 09:30 | 61.00720 | -10.01593 | 11304 ft | 141 kts | 133° |
| 2026-05-09 09:30 | 61.00051 | -10.00110 | 11308 ft | 141 kts | 127° |
| 2026-05-09 09:30 | 60.99615 | -9.98339 | 11311 ft | 138 kts | 109° |
| 2026-05-09 09:31 | 60.99211 | -9.96539 | 11314 ft | 138 kts | 110° |
| 2026-05-09 09:31 | 60.98806 | -9.94738 | 11307 ft | 139 kts | 110° |
| 2026-05-09 09:31 | 60.98401 | -9.92939 | 11309 ft | 139 kts | 110° |
| 2026-05-09 09:32 | 60.97587 | -9.89334 | 11311 ft | 139 kts | 110° |
| 2026-05-09 09:32 | 60.97181 | -9.87539 | 11311 ft | 138 kts | 110° |
| 2026-05-09 09:32 | 60.96776 | -9.85750 | 11302 ft | 138 kts | 110° |
| 2026-05-09 09:32 | 60.96370 | -9.83959 | 11304 ft | 138 kts | 110° |
| 2026-05-09 09:33 | 60.95964 | -9.82167 | 11303 ft | 138 kts | 111° |
| 2026-05-09 09:33 | 60.95557 | -9.80374 | 11301 ft | 138 kts | 111° |
| 2026-05-09 09:33 | 60.95151 | -9.78583 | 11298 ft | 138 kts | 111° |
| 2026-05-09 09:33 | 60.94744 | -9.76795 | 11300 ft | 138 kts | 110° |
| 2026-05-09 09:34 | 60.94337 | -9.75007 | 11302 ft | 138 kts | 110° |
| 2026-05-09 09:34 | 60.93929 | -9.73216 | 11304 ft | 138 kts | 111° |
| 2026-05-09 09:34 | 60.93521 | -9.71428 | 11299 ft | 138 kts | 111° |
| 2026-05-09 09:36 | 60.90665 | -9.58936 | 11309 ft | 137 kts | 112° |
| 2026-05-09 09:36 | 60.90258 | -9.57161 | 11312 ft | 137 kts | 112° |
| 2026-05-09 09:36 | 60.89850 | -9.55388 | 11311 ft | 137 kts | 112° |
| 2026-05-09 09:37 | 60.89443 | -9.53617 | 11311 ft | 137 kts | 112° |
| 2026-05-09 09:37 | 60.89037 | -9.51850 | 11310 ft | 137 kts | 113° |
| 2026-05-09 09:37 | 60.88631 | -9.50086 | 11310 ft | 137 kts | 113° |
| 2026-05-09 09:37 | 60.88225 | -9.48323 | 11315 ft | 137 kts | 112° |
| 2026-05-09 09:38 | 60.87818 | -9.46559 | 11315 ft | 137 kts | 112° |
| 2026-05-09 09:38 | 60.87411 | -9.44794 | 11315 ft | 137 kts | 112° |
| 2026-05-09 09:38 | 60.87003 | -9.43028 | 11315 ft | 137 kts | 112° |
| 2026-05-09 09:38 | 60.86594 | -9.41259 | 11315 ft | 137 kts | 113° |
| 2026-05-09 09:39 | 60.86186 | -9.39492 | 11313 ft | 137 kts | 113° |
| 2026-05-09 09:39 | 60.85776 | -9.37724 | 11313 ft | 137 kts | 112° |
| 2026-05-09 09:39 | 60.85366 | -9.35955 | 11313 ft | 137 kts | 112° |
| 2026-05-09 09:39 | 60.84956 | -9.34188 | 11307 ft | 137 kts | 112° |
| 2026-05-09 09:40 | 60.84545 | -9.32419 | 11306 ft | 137 kts | 113° |
| 2026-05-09 09:40 | 60.84135 | -9.30651 | 11305 ft | 137 kts | 113° |
| 2026-05-09 09:40 | 60.83725 | -9.28887 | 11305 ft | 137 kts | 113° |
| 2026-05-09 09:40 | 60.83315 | -9.27123 | 11304 ft | 137 kts | 113° |
| 2026-05-09 09:41 | 60.82904 | -9.25362 | 11304 ft | 137 kts | 112° |
| 2026-05-09 09:41 | 60.82494 | -9.23603 | 11304 ft | 137 kts | 113° |
| 2026-05-09 09:41 | 60.82084 | -9.21847 | 11304 ft | 137 kts | 113° |
| 2026-05-09 09:41 | 60.81676 | -9.20093 | 11303 ft | 136 kts | 113° |
| 2026-05-09 09:42 | 60.81266 | -9.18340 | 11303 ft | 136 kts | 113° |
| 2026-05-09 09:42 | 60.80862 | -9.16610 | 11302 ft | 136 kts | 113° |
| 2026-05-09 09:42 | 60.80451 | -9.14858 | 11302 ft | 136 kts | 113° |
| 2026-05-09 09:42 | 60.80041 | -9.13106 | 11303 ft | 137 kts | 113° |
| 2026-05-09 09:43 | 60.79630 | -9.11352 | 11301 ft | 137 kts | 113° |
| 2026-05-09 09:43 | 60.79218 | -9.09595 | 11309 ft | 137 kts | 113° |
| 2026-05-09 09:43 | 60.78806 | -9.07836 | 11309 ft | 137 kts | 113° |
| 2026-05-09 09:43 | 60.78392 | -9.06079 | 11308 ft | 137 kts | 113° |
| 2026-05-09 09:44 | 60.77979 | -9.04323 | 11302 ft | 137 kts | 113° |
| 2026-05-09 09:44 | 60.77565 | -9.02567 | 11302 ft | 137 kts | 113° |
| 2026-05-09 09:44 | 60.77152 | -9.00810 | 11302 ft | 137 kts | 113° |
| 2026-05-09 09:44 | 60.76739 | -8.99054 | 11302 ft | 137 kts | 113° |
| 2026-05-09 09:45 | 60.76325 | -8.97301 | 11301 ft | 137 kts | 113° |
| 2026-05-09 09:45 | 60.75911 | -8.95547 | 11301 ft | 137 kts | 113° |
| 2026-05-09 09:45 | 60.75496 | -8.93794 | 11300 ft | 137 kts | 113° |
| 2026-05-09 09:45 | 60.75082 | -8.92042 | 11301 ft | 137 kts | 113° |
| 2026-05-09 09:46 | 60.74667 | -8.90287 | 11289 ft | 137 kts | 113° |
| 2026-05-09 09:46 | 60.74252 | -8.88540 | 11310 ft | 136 kts | 115° |
| 2026-05-09 09:46 | 60.73840 | -8.86797 | 11311 ft | 136 kts | 115° |
| 2026-05-09 09:46 | 60.73427 | -8.85058 | 11311 ft | 136 kts | 115° |
| 2026-05-09 09:47 | 60.73015 | -8.83323 | 11312 ft | 135 kts | 115° |
| 2026-05-09 09:47 | 60.72604 | -8.81594 | 11311 ft | 135 kts | 115° |
| 2026-05-09 09:47 | 60.72193 | -8.79865 | 11311 ft | 135 kts | 115° |
| 2026-05-09 09:47 | 60.71782 | -8.78136 | 11311 ft | 135 kts | 115° |
| 2026-05-09 09:48 | 60.71370 | -8.76406 | 11306 ft | 135 kts | 115° |
| 2026-05-09 09:48 | 60.70957 | -8.74676 | 11305 ft | 135 kts | 115° |
| 2026-05-09 09:48 | 60.70544 | -8.72947 | 11305 ft | 135 kts | 115° |
| 2026-05-09 09:48 | 60.70131 | -8.71219 | 11308 ft | 136 kts | 115° |
| 2026-05-09 09:49 | 60.69718 | -8.69490 | 11310 ft | 136 kts | 115° |
| 2026-05-09 09:49 | 60.69305 | -8.67761 | 11310 ft | 136 kts | 115° |
| 2026-05-09 09:49 | 60.68898 | -8.66057 | 11310 ft | 135 kts | 115° |
| 2026-05-09 09:49 | 60.68484 | -8.64330 | 11310 ft | 135 kts | 115° |
| 2026-05-09 09:50 | 60.68070 | -8.62606 | 11309 ft | 135 kts | 115° |
| 2026-05-09 09:50 | 60.67657 | -8.60885 | 11309 ft | 135 kts | 115° |
| 2026-05-09 09:50 | 60.67244 | -8.59164 | 11309 ft | 135 kts | 115° |
| 2026-05-09 09:50 | 60.66830 | -8.57443 | 11309 ft | 135 kts | 115° |
| 2026-05-09 09:51 | 60.66416 | -8.55721 | 11308 ft | 135 kts | 115° |
| 2026-05-09 09:51 | 60.66002 | -8.54001 | 11308 ft | 135 kts | 115° |
| 2026-05-09 09:51 | 60.65588 | -8.52282 | 11307 ft | 135 kts | 115° |
| 2026-05-09 09:51 | 60.65173 | -8.50562 | 11307 ft | 135 kts | 115° |
| 2026-05-09 09:52 | 60.64759 | -8.48844 | 11304 ft | 135 kts | 115° |
| 2026-05-09 09:52 | 60.64344 | -8.47125 | 11304 ft | 135 kts | 115° |
| 2026-05-09 09:52 | 60.63928 | -8.45404 | 11305 ft | 135 kts | 115° |
| 2026-05-09 09:52 | 60.63512 | -8.43684 | 11302 ft | 135 kts | 115° |
| 2026-05-09 09:53 | 60.63095 | -8.41962 | 11304 ft | 135 kts | 115° |
| 2026-05-09 09:53 | 60.62678 | -8.40243 | 11303 ft | 135 kts | 115° |
| 2026-05-09 09:53 | 60.62262 | -8.38524 | 11303 ft | 135 kts | 115° |
| 2026-05-09 09:53 | 60.61845 | -8.36805 | 11303 ft | 135 kts | 115° |
| 2026-05-09 09:54 | 60.61569 | -8.35671 | 11300 ft | 135 kts | 115° |
| 2026-05-09 09:54 | 60.61152 | -8.33955 | 11299 ft | 135 kts | 115° |
| 2026-05-09 09:54 | 60.60736 | -8.32244 | 11302 ft | 135 kts | 115° |
| 2026-05-09 09:54 | 60.60209 | -8.30077 | 11302 ft | 135 kts | 115° |
| 2026-05-09 09:55 | 60.59800 | -8.28400 | 11308 ft | 135 kts | 115° |
| 2026-05-09 09:55 | 60.59382 | -8.26682 | 11308 ft | 136 kts | 115° |
| 2026-05-09 09:55 | 60.58969 | -8.24988 | 11308 ft | 136 kts | 115° |
| 2026-05-09 09:55 | 60.58685 | -8.23826 | 11308 ft | 136 kts | 115° |
| 2026-05-09 09:56 | 60.58265 | -8.22105 | 11303 ft | 136 kts | 116° |
| 2026-05-09 09:56 | 60.57844 | -8.20383 | 11303 ft | 136 kts | 116° |
| 2026-05-09 09:56 | 60.57423 | -8.18663 | 11302 ft | 136 kts | 115° |
| 2026-05-09 09:56 | 60.57002 | -8.16942 | 11302 ft | 136 kts | 115° |
| 2026-05-09 09:57 | 60.56586 | -8.15247 | 11304 ft | 136 kts | 115° |
| 2026-05-09 09:57 | 60.56163 | -8.13523 | 11306 ft | 136 kts | 117° |
| 2026-05-09 09:57 | 60.55741 | -8.11801 | 11306 ft | 136 kts | 117° |
| 2026-05-09 09:57 | 60.55319 | -8.10082 | 11305 ft | 136 kts | 117° |
| 2026-05-09 09:58 | 60.54897 | -8.08364 | 11304 ft | 136 kts | 117° |
| 2026-05-09 09:58 | 60.54474 | -8.06645 | 11306 ft | 136 kts | 117° |
| 2026-05-09 09:58 | 60.54051 | -8.04928 | 11305 ft | 136 kts | 117° |
| 2026-05-09 09:58 | 60.53629 | -8.03212 | 11307 ft | 136 kts | 117° |
| 2026-05-09 09:59 | 60.53206 | -8.01495 | 11307 ft | 136 kts | 117° |
| 2026-05-09 09:59 | 60.52782 | -7.99777 | 11306 ft | 137 kts | 117° |
| 2026-05-09 09:59 | 60.52355 | -7.98051 | 11308 ft | 137 kts | 117° |
| 2026-05-09 09:59 | 60.51928 | -7.96325 | 11306 ft | 137 kts | 117° |
| 2026-05-09 10:00 | 60.51500 | -7.94596 | 11295 ft | 137 kts | 117° |
| 2026-05-09 10:00 | 60.51074 | -7.92876 | 11298 ft | 136 kts | 118° |
| 2026-05-09 10:00 | 60.50652 | -7.91169 | 11297 ft | 135 kts | 118° |
| 2026-05-09 10:00 | 60.50231 | -7.89467 | 11295 ft | 135 kts | 118° |
| 2026-05-09 10:01 | 60.49810 | -7.87772 | 11295 ft | 134 kts | 118° |
| 2026-05-09 10:01 | 60.49390 | -7.86083 | 11294 ft | 134 kts | 118° |
| 2026-05-09 10:01 | 60.48971 | -7.84396 | 11294 ft | 134 kts | 118° |
| 2026-05-09 10:01 | 60.48551 | -7.82708 | 11294 ft | 134 kts | 119° |
| 2026-05-09 10:02 | 60.48131 | -7.81018 | 11294 ft | 134 kts | 119° |
| 2026-05-09 10:02 | 60.47710 | -7.79327 | 11294 ft | 134 kts | 118° |
| 2026-05-09 10:02 | 60.47289 | -7.77638 | 11294 ft | 134 kts | 118° |
| 2026-05-09 10:02 | 60.46866 | -7.75946 | 11294 ft | 134 kts | 118° |
| 2026-05-09 10:03 | 60.46445 | -7.74258 | 11294 ft | 134 kts | 118° |
| 2026-05-09 10:03 | 60.46022 | -7.72565 | 11294 ft | 135 kts | 119° |
| 2026-05-09 10:03 | 60.45600 | -7.70874 | 11294 ft | 134 kts | 119° |
| 2026-05-09 10:03 | 60.45178 | -7.69187 | 11294 ft | 134 kts | 118° |
| 2026-05-09 10:04 | 60.44755 | -7.67502 | 11293 ft | 134 kts | 118° |
| 2026-05-09 10:04 | 60.44334 | -7.65820 | 11292 ft | 134 kts | 119° |
| 2026-05-09 10:04 | 60.43912 | -7.64139 | 11291 ft | 134 kts | 119° |
| 2026-05-09 10:04 | 60.43492 | -7.62462 | 11291 ft | 134 kts | 119° |
| 2026-05-09 10:05 | 60.43070 | -7.60782 | 11294 ft | 134 kts | 119° |
| 2026-05-09 10:05 | 60.42648 | -7.59102 | 11294 ft | 134 kts | 119° |
| 2026-05-09 10:05 | 60.42224 | -7.57421 | 11294 ft | 134 kts | 118° |
| 2026-05-09 10:05 | 60.41801 | -7.55740 | 11292 ft | 134 kts | 119° |
| 2026-05-09 10:06 | 60.41377 | -7.54057 | 11291 ft | 134 kts | 119° |
| 2026-05-09 10:06 | 60.40954 | -7.52377 | 11291 ft | 134 kts | 119° |
| 2026-05-09 10:06 | 60.40531 | -7.50701 | 11292 ft | 133 kts | 119° |
| 2026-05-09 10:06 | 60.40109 | -7.49030 | 11291 ft | 133 kts | 119° |
| 2026-05-09 10:07 | 60.39687 | -7.47360 | 11289 ft | 133 kts | 119° |
| 2026-05-09 10:07 | 60.39264 | -7.45689 | 11289 ft | 134 kts | 119° |
| 2026-05-09 10:07 | 60.38840 | -7.44015 | 11290 ft | 134 kts | 119° |
| 2026-05-09 10:07 | 60.38416 | -7.42339 | 11291 ft | 134 kts | 119° |
| 2026-05-09 10:08 | 60.37991 | -7.40660 | 11293 ft | 134 kts | 119° |
| 2026-05-09 10:08 | 60.37563 | -7.38974 | 11293 ft | 135 kts | 119° |
| 2026-05-09 10:08 | 60.37136 | -7.37290 | 11293 ft | 135 kts | 119° |
| 2026-05-09 10:08 | 60.36707 | -7.35607 | 11293 ft | 135 kts | 119° |
| 2026-05-09 10:09 | 60.36280 | -7.33927 | 11293 ft | 135 kts | 119° |
| 2026-05-09 10:09 | 60.35858 | -7.32268 | 11291 ft | 134 kts | 119° |
| 2026-05-09 10:09 | 60.35434 | -7.30597 | 11292 ft | 133 kts | 119° |
| 2026-05-09 10:09 | 60.35010 | -7.28932 | 11291 ft | 133 kts | 119° |
| 2026-05-09 10:10 | 60.34588 | -7.27279 | 11292 ft | 132 kts | 119° |
| 2026-05-09 10:10 | 60.34166 | -7.25628 | 11289 ft | 132 kts | 119° |
| 2026-05-09 10:10 | 60.33745 | -7.23979 | 11288 ft | 132 kts | 119° |
| 2026-05-09 10:10 | 60.33325 | -7.22334 | 11290 ft | 132 kts | 119° |
| 2026-05-09 10:11 | 60.32904 | -7.20690 | 11287 ft | 132 kts | 119° |
| 2026-05-09 10:11 | 60.32485 | -7.19052 | 11292 ft | 131 kts | 119° |
| 2026-05-09 10:11 | 60.32066 | -7.17414 | 11291 ft | 131 kts | 119° |
| 2026-05-09 10:11 | 60.31647 | -7.15782 | 11292 ft | 131 kts | 119° |
| 2026-05-09 10:12 | 60.31229 | -7.14151 | 11292 ft | 131 kts | 119° |
| 2026-05-09 10:12 | 60.30809 | -7.12517 | 11293 ft | 131 kts | 119° |
| 2026-05-09 10:12 | 60.30389 | -7.10880 | 11293 ft | 132 kts | 120° |
| 2026-05-09 10:12 | 60.29967 | -7.09238 | 11294 ft | 132 kts | 120° |
| 2026-05-09 10:13 | 60.29546 | -7.07599 | 11294 ft | 132 kts | 119° |
| 2026-05-09 10:13 | 60.29124 | -7.05963 | 11293 ft | 132 kts | 119° |
| 2026-05-09 10:13 | 60.28702 | -7.04328 | 11293 ft | 131 kts | 119° |
| 2026-05-09 10:13 | 60.28281 | -7.02693 | 11293 ft | 132 kts | 120° |
| 2026-05-09 10:14 | 60.27859 | -7.01056 | 11293 ft | 132 kts | 120° |
| 2026-05-09 10:14 | 60.27438 | -6.99423 | 11298 ft | 130 kts | 120° |
| 2026-05-09 10:14 | 60.27024 | -6.97823 | 11292 ft | 131 kts | 120° |
| 2026-05-09 10:14 | 60.26605 | -6.96202 | 11294 ft | 130 kts | 119° |
| 2026-05-09 10:15 | 60.26187 | -6.94589 | 11298 ft | 129 kts | 119° |
| 2026-05-09 10:15 | 60.25772 | -6.92986 | 11293 ft | 129 kts | 120° |
| 2026-05-09 10:15 | 60.25359 | -6.91389 | 11293 ft | 128 kts | 120° |
| 2026-05-09 10:15 | 60.24946 | -6.89796 | 11295 ft | 128 kts | 120° |
| 2026-05-09 10:16 | 60.24533 | -6.88208 | 11299 ft | 128 kts | 120° |
| 2026-05-09 10:16 | 60.24121 | -6.86621 | 11296 ft | 128 kts | 119° |
| 2026-05-09 10:16 | 60.23708 | -6.85033 | 11293 ft | 128 kts | 120° |
| 2026-05-09 10:16 | 60.23294 | -6.83442 | 11297 ft | 129 kts | 120° |
| 2026-05-09 10:17 | 60.22879 | -6.81849 | 11296 ft | 128 kts | 120° |
| 2026-05-09 10:17 | 60.22466 | -6.80261 | 11301 ft | 128 kts | 120° |
| 2026-05-09 10:17 | 60.22051 | -6.78669 | 11297 ft | 128 kts | 120° |
| 2026-05-09 10:17 | 60.21638 | -6.77087 | 11303 ft | 128 kts | 120° |
| 2026-05-09 10:18 | 60.21226 | -6.75507 | 11292 ft | 127 kts | 120° |
| 2026-05-09 10:18 | 60.20814 | -6.73931 | 11297 ft | 127 kts | 120° |
| 2026-05-09 10:18 | 60.20405 | -6.72363 | 11297 ft | 127 kts | 120° |
| 2026-05-09 10:18 | 60.19996 | -6.70798 | 11305 ft | 126 kts | 120° |
| 2026-05-09 10:19 | 60.19587 | -6.69235 | 11304 ft | 126 kts | 121° |
| 2026-05-09 10:19 | 60.19177 | -6.67673 | 11299 ft | 126 kts | 121° |
| 2026-05-09 10:19 | 60.18767 | -6.66110 | 11297 ft | 126 kts | 121° |
| 2026-05-09 10:19 | 60.18358 | -6.64548 | 11298 ft | 126 kts | 121° |
| 2026-05-09 10:20 | 60.17948 | -6.62986 | 11299 ft | 126 kts | 121° |
| 2026-05-09 10:20 | 60.17538 | -6.61421 | 11297 ft | 127 kts | 121° |
| 2026-05-09 10:20 | 60.17126 | -6.59856 | 11298 ft | 127 kts | 121° |
| 2026-05-09 10:20 | 60.16714 | -6.58290 | 11297 ft | 127 kts | 121° |
| 2026-05-09 10:21 | 60.16301 | -6.56720 | 11299 ft | 127 kts | 121° |
| 2026-05-09 10:21 | 60.15888 | -6.55153 | 11300 ft | 127 kts | 121° |
| 2026-05-09 10:21 | 60.15476 | -6.53591 | 11300 ft | 127 kts | 121° |
| 2026-05-09 10:21 | 60.15065 | -6.52029 | 11300 ft | 126 kts | 121° |
| 2026-05-09 10:22 | 60.14653 | -6.50469 | 11300 ft | 126 kts | 121° |
| 2026-05-09 10:22 | 60.14243 | -6.48917 | 11299 ft | 126 kts | 121° |
| 2026-05-09 10:22 | 60.13832 | -6.47365 | 11297 ft | 126 kts | 121° |
| 2026-05-09 10:22 | 60.13423 | -6.45816 | 11295 ft | 126 kts | 121° |
| 2026-05-09 10:23 | 60.13014 | -6.44274 | 11298 ft | 125 kts | 122° |
| 2026-05-09 10:23 | 60.12610 | -6.42749 | 11297 ft | 125 kts | 122° |
| 2026-05-09 10:23 | 60.12202 | -6.41206 | 11297 ft | 125 kts | 122° |
| 2026-05-09 10:23 | 60.11795 | -6.39667 | 11300 ft | 125 kts | 122° |
| 2026-05-09 10:24 | 60.11387 | -6.38132 | 11298 ft | 125 kts | 121° |
| 2026-05-09 10:24 | 60.10980 | -6.36602 | 11297 ft | 124 kts | 121° |
| 2026-05-09 10:24 | 60.10573 | -6.35072 | 11295 ft | 124 kts | 122° |
| 2026-05-09 10:24 | 60.10166 | -6.33542 | 11295 ft | 124 kts | 122° |
| 2026-05-09 10:25 | 60.09760 | -6.32011 | 11294 ft | 125 kts | 122° |
| 2026-05-09 10:25 | 60.09351 | -6.30474 | 11296 ft | 125 kts | 122° |
| 2026-05-09 10:25 | 60.08941 | -6.28936 | 11296 ft | 125 kts | 122° |
| 2026-05-09 10:25 | 60.08530 | -6.27399 | 11299 ft | 125 kts | 121° |
| 2026-05-09 10:26 | 60.08119 | -6.25860 | 11299 ft | 125 kts | 121° |
| 2026-05-09 10:26 | 60.07708 | -6.24322 | 11300 ft | 125 kts | 122° |
| 2026-05-09 10:26 | 60.07298 | -6.22784 | 11299 ft | 125 kts | 122° |
| 2026-05-09 10:26 | 60.06887 | -6.21248 | 11296 ft | 125 kts | 122° |
| 2026-05-09 10:27 | 60.06477 | -6.19714 | 11296 ft | 125 kts | 122° |
| 2026-05-09 10:27 | 60.06067 | -6.18183 | 11294 ft | 125 kts | 122° |
| 2026-05-09 10:27 | 60.05651 | -6.16635 | 11270 ft | 127 kts | 122° |
| 2026-05-09 10:27 | 60.05241 | -6.15099 | 11298 ft | 124 kts | 122° |
| 2026-05-09 10:28 | 60.04833 | -6.13575 | 11298 ft | 124 kts | 122° |
| 2026-05-09 10:28 | 60.04425 | -6.12057 | 11301 ft | 124 kts | 122° |
| 2026-05-09 10:28 | 60.04015 | -6.10537 | 11298 ft | 124 kts | 122° |
| 2026-05-09 10:28 | 60.03607 | -6.09020 | 11298 ft | 124 kts | 122° |
| 2026-05-09 10:29 | 60.03199 | -6.07501 | 11292 ft | 123 kts | 121° |
| 2026-05-09 10:29 | 60.02797 | -6.06000 | 11294 ft | 123 kts | 121° |
| 2026-05-09 10:29 | 60.02391 | -6.04497 | 11303 ft | 123 kts | 121° |
| 2026-05-09 10:29 | 60.01984 | -6.02988 | 11298 ft | 123 kts | 120° |
| 2026-05-09 10:30 | 60.01577 | -6.01482 | 11308 ft | 123 kts | 120° |
| 2026-05-09 10:30 | 60.01176 | -5.99996 | 11308 ft | 123 kts | 121° |
| 2026-05-09 10:30 | 60.00769 | -5.98489 | 11306 ft | 123 kts | 121° |
| 2026-05-09 10:30 | 60.00362 | -5.96983 | 11307 ft | 123 kts | 121° |
| 2026-05-09 10:31 | 59.99952 | -5.95466 | 11316 ft | 125 kts | 121° |
| 2026-05-09 10:31 | 59.99538 | -5.93938 | 11317 ft | 125 kts | 121° |
| 2026-05-09 10:31 | 59.99123 | -5.92405 | 11311 ft | 126 kts | 121° |
| 2026-05-09 10:31 | 59.98706 | -5.90868 | 11315 ft | 126 kts | 121° |
| 2026-05-09 10:32 | 59.98289 | -5.89330 | 11313 ft | 126 kts | 121° |
| 2026-05-09 10:32 | 59.97872 | -5.87791 | 11311 ft | 126 kts | 121° |
| 2026-05-09 10:32 | 59.97453 | -5.86248 | 11318 ft | 126 kts | 121° |
| 2026-05-09 10:32 | 59.97033 | -5.84702 | 11321 ft | 127 kts | 121° |
| 2026-05-09 10:33 | 59.96612 | -5.83155 | 11322 ft | 127 kts | 121° |
| 2026-05-09 10:33 | 59.96189 | -5.81603 | 11310 ft | 128 kts | 121° |
| 2026-05-09 10:33 | 59.95765 | -5.80046 | 11316 ft | 128 kts | 121° |
| 2026-05-09 10:33 | 59.95339 | -5.78482 | 11311 ft | 129 kts | 121° |
| 2026-05-09 10:34 | 59.94910 | -5.76909 | 11314 ft | 129 kts | 121° |
| 2026-05-09 10:34 | 59.94048 | -5.73750 | 11317 ft | 130 kts | 121° |
| 2026-05-09 10:34 | 59.93615 | -5.72168 | 11318 ft | 130 kts | 121° |
| 2026-05-09 10:35 | 59.93183 | -5.70588 | 11316 ft | 130 kts | 121° |
| 2026-05-09 10:35 | 59.92751 | -5.69011 | 11323 ft | 129 kts | 121° |
| 2026-05-09 10:35 | 59.92320 | -5.67434 | 11314 ft | 130 kts | 121° |
| 2026-05-09 10:35 | 59.91888 | -5.65857 | 11320 ft | 130 kts | 121° |
| 2026-05-09 10:36 | 59.91461 | -5.64300 | 11319 ft | 130 kts | 121° |
| 2026-05-09 10:36 | 59.91026 | -5.62718 | 11312 ft | 130 kts | 121° |
| 2026-05-09 10:36 | 59.90592 | -5.61138 | 11324 ft | 130 kts | 121° |
| 2026-05-09 10:36 | 59.90157 | -5.59555 | 11316 ft | 130 kts | 121° |
| 2026-05-09 10:37 | 59.89723 | -5.57973 | 11320 ft | 130 kts | 121° |
| 2026-05-09 10:37 | 59.89289 | -5.56397 | 11318 ft | 130 kts | 121° |
| 2026-05-09 10:37 | 59.88856 | -5.54822 | 11312 ft | 130 kts | 121° |
| 2026-05-09 10:37 | 59.88422 | -5.53251 | 11316 ft | 129 kts | 121° |
| 2026-05-09 10:38 | 59.87990 | -5.51683 | 11314 ft | 129 kts | 121° |
| 2026-05-09 10:38 | 59.87559 | -5.50119 | 11314 ft | 129 kts | 121° |
| 2026-05-09 10:38 | 59.87126 | -5.48552 | 11307 ft | 129 kts | 121° |
| 2026-05-09 10:38 | 59.86696 | -5.46994 | 11310 ft | 129 kts | 121° |
| 2026-05-09 10:39 | 59.86264 | -5.45436 | 11312 ft | 128 kts | 121° |
| 2026-05-09 10:39 | 59.85834 | -5.43882 | 11309 ft | 128 kts | 121° |
| 2026-05-09 10:39 | 59.85405 | -5.42330 | 11301 ft | 128 kts | 122° |
| 2026-05-09 10:39 | 59.84975 | -5.40776 | 11311 ft | 128 kts | 122° |
| 2026-05-09 10:40 | 59.84543 | -5.39220 | 11312 ft | 128 kts | 121° |
| 2026-05-09 10:40 | 59.84111 | -5.37662 | 11311 ft | 129 kts | 121° |
| 2026-05-09 10:40 | 59.83676 | -5.36098 | 11309 ft | 130 kts | 121° |
| 2026-05-09 10:40 | 59.83239 | -5.34527 | 11315 ft | 130 kts | 121° |
| 2026-05-09 10:41 | 59.82801 | -5.32949 | 11314 ft | 131 kts | 122° |
| 2026-05-09 10:41 | 59.82359 | -5.31361 | 11323 ft | 131 kts | 122° |
| 2026-05-09 10:41 | 59.81915 | -5.29765 | 11323 ft | 132 kts | 122° |
| 2026-05-09 10:41 | 59.81470 | -5.28169 | 11324 ft | 132 kts | 121° |
| 2026-05-09 10:42 | 59.81024 | -5.26571 | 11321 ft | 132 kts | 121° |
| 2026-05-09 10:42 | 59.80577 | -5.24969 | 11316 ft | 133 kts | 122° |
| 2026-05-09 10:42 | 59.80127 | -5.23353 | 11315 ft | 134 kts | 122° |
| 2026-05-09 10:42 | 59.79674 | -5.21734 | 11314 ft | 134 kts | 122° |
| 2026-05-09 10:43 | 59.79228 | -5.20138 | 11313 ft | 134 kts | 122° |
| 2026-05-09 10:43 | 59.78922 | -5.19044 | 11315 ft | 134 kts | 122° |
| 2026-05-09 10:43 | 59.78468 | -5.17422 | 11313 ft | 134 kts | 122° |
| 2026-05-09 10:43 | 59.78015 | -5.15805 | 11306 ft | 134 kts | 122° |
| 2026-05-09 10:44 | 59.77563 | -5.14191 | 11305 ft | 134 kts | 122° |
| 2026-05-09 10:44 | 59.76962 | -5.12049 | 11298 ft | 134 kts | 122° |
| 2026-05-09 10:44 | 59.76507 | -5.10430 | 11300 ft | 135 kts | 122° |
| 2026-05-09 10:44 | 59.76051 | -5.08810 | 11306 ft | 135 kts | 122° |
| 2026-05-09 10:45 | 59.75743 | -5.07712 | 11302 ft | 135 kts | 122° |
| 2026-05-09 10:46 | 59.73908 | -5.01197 | 11310 ft | 135 kts | 122° |
| 2026-05-09 10:46 | 59.73447 | -4.99565 | 11309 ft | 136 kts | 122° |
| 2026-05-09 10:46 | 59.72987 | -4.97933 | 11310 ft | 136 kts | 122° |
| 2026-05-09 10:46 | 59.72527 | -4.96304 | 11309 ft | 136 kts | 122° |
| 2026-05-09 10:47 | 59.72066 | -4.94675 | 11300 ft | 135 kts | 122° |
| 2026-05-09 10:47 | 59.71605 | -4.93046 | 11309 ft | 136 kts | 122° |
| 2026-05-09 10:47 | 59.71144 | -4.91417 | 11309 ft | 136 kts | 122° |
| 2026-05-09 10:47 | 59.70687 | -4.89807 | 11302 ft | 136 kts | 122° |
| 2026-05-09 10:48 | 59.70219 | -4.88156 | 11303 ft | 136 kts | 122° |
| 2026-05-09 10:48 | 59.69764 | -4.86549 | 11309 ft | 136 kts | 122° |
| 2026-05-09 10:48 | 59.69300 | -4.84915 | 11310 ft | 136 kts | 122° |
| 2026-05-09 10:48 | 59.68835 | -4.83280 | 11305 ft | 136 kts | 122° |
| 2026-05-09 10:49 | 59.68370 | -4.81644 | 11309 ft | 136 kts | 122° |
| 2026-05-09 10:49 | 59.67906 | -4.80014 | 11311 ft | 136 kts | 122° |
| 2026-05-09 10:49 | 59.67442 | -4.78384 | 11312 ft | 136 kts | 122° |
| 2026-05-09 10:49 | 59.66978 | -4.76755 | 11306 ft | 136 kts | 122° |
| 2026-05-09 10:50 | 59.66512 | -4.75120 | 11306 ft | 136 kts | 122° |
| 2026-05-09 10:50 | 59.66046 | -4.73490 | 11308 ft | 136 kts | 122° |
| 2026-05-09 10:50 | 59.65580 | -4.71859 | 11298 ft | 136 kts | 122° |
| 2026-05-09 10:50 | 59.65115 | -4.70232 | 11304 ft | 136 kts | 122° |
| 2026-05-09 10:51 | 59.64650 | -4.68606 | 11304 ft | 136 kts | 122° |
| 2026-05-09 10:51 | 59.64186 | -4.66980 | 11304 ft | 136 kts | 122° |
| 2026-05-09 10:51 | 59.63720 | -4.65355 | 11302 ft | 136 kts | 122° |
| 2026-05-09 10:51 | 59.63254 | -4.63729 | 11309 ft | 136 kts | 122° |
| 2026-05-09 10:52 | 59.62787 | -4.62103 | 11307 ft | 136 kts | 122° |
| 2026-05-09 10:52 | 59.62321 | -4.60477 | 11310 ft | 136 kts | 122° |
| 2026-05-09 10:52 | 59.61854 | -4.58852 | 11309 ft | 136 kts | 122° |
| 2026-05-09 10:52 | 59.61388 | -4.57227 | 11305 ft | 136 kts | 122° |
| 2026-05-09 10:53 | 59.60921 | -4.55603 | 11315 ft | 136 kts | 123° |
| 2026-05-09 10:53 | 59.60452 | -4.53978 | 11309 ft | 136 kts | 123° |
| 2026-05-09 10:53 | 59.59983 | -4.52350 | 11314 ft | 137 kts | 123° |
| 2026-05-09 10:53 | 59.59512 | -4.50715 | 11310 ft | 137 kts | 123° |
| 2026-05-09 10:54 | 59.59038 | -4.49071 | 11317 ft | 139 kts | 123° |
| 2026-05-09 10:54 | 59.58559 | -4.47414 | 11322 ft | 139 kts | 123° |
| 2026-05-09 10:54 | 59.58078 | -4.45750 | 11323 ft | 140 kts | 123° |
| 2026-05-09 10:54 | 59.57598 | -4.44087 | 11320 ft | 139 kts | 123° |
| 2026-05-09 10:55 | 59.57119 | -4.42431 | 11313 ft | 138 kts | 123° |
| 2026-05-09 10:55 | 59.56645 | -4.40789 | 11303 ft | 138 kts | 123° |
| 2026-05-09 10:55 | 59.56170 | -4.39151 | 11308 ft | 137 kts | 123° |
| 2026-05-09 10:55 | 59.55697 | -4.37518 | 11308 ft | 137 kts | 123° |
| 2026-05-09 10:56 | 59.55225 | -4.35893 | 11305 ft | 136 kts | 123° |
| 2026-05-09 10:56 | 59.54753 | -4.34269 | 11294 ft | 136 kts | 123° |
| 2026-05-09 10:56 | 59.54283 | -4.32650 | 11304 ft | 136 kts | 123° |
| 2026-05-09 10:56 | 59.53814 | -4.31034 | 11302 ft | 136 kts | 123° |
| 2026-05-09 10:57 | 59.53344 | -4.29420 | 11304 ft | 136 kts | 123° |
| 2026-05-09 10:57 | 59.52876 | -4.27810 | 11304 ft | 134 kts | 123° |
| 2026-05-09 10:57 | 59.52409 | -4.26211 | 11310 ft | 135 kts | 123° |
| 2026-05-09 10:57 | 59.51943 | -4.24612 | 11299 ft | 135 kts | 123° |
| 2026-05-09 10:58 | 59.51475 | -4.23007 | 11311 ft | 135 kts | 123° |
| 2026-05-09 10:58 | 59.51006 | -4.21400 | 11302 ft | 135 kts | 123° |
| 2026-05-09 10:58 | 59.50537 | -4.19793 | 11305 ft | 135 kts | 123° |
| 2026-05-09 10:58 | 59.50068 | -4.18189 | 11303 ft | 135 kts | 123° |
| 2026-05-09 10:59 | 59.49600 | -4.16590 | 11304 ft | 135 kts | 123° |
| 2026-05-09 10:59 | 59.49137 | -4.15010 | 11304 ft | 135 kts | 123° |
| 2026-05-09 10:59 | 59.48669 | -4.13411 | 11304 ft | 135 kts | 123° |
| 2026-05-09 10:59 | 59.48201 | -4.11814 | 11303 ft | 135 kts | 124° |
| 2026-05-09 11:00 | 59.47732 | -4.10216 | 11304 ft | 135 kts | 123° |
| 2026-05-09 11:00 | 59.47264 | -4.08623 | 11304 ft | 135 kts | 123° |
| 2026-05-09 11:00 | 59.46795 | -4.07025 | 11299 ft | 135 kts | 123° |
| 2026-05-09 11:00 | 59.46325 | -4.05426 | 11300 ft | 135 kts | 123° |
| 2026-05-09 11:01 | 59.45855 | -4.03827 | 11302 ft | 135 kts | 123° |
| 2026-05-09 11:01 | 59.45384 | -4.02227 | 11307 ft | 135 kts | 123° |
| 2026-05-09 11:01 | 59.44913 | -4.00629 | 11308 ft | 135 kts | 123° |
| 2026-05-09 11:01 | 59.44442 | -3.99032 | 11305 ft | 135 kts | 123° |
| 2026-05-09 11:02 | 59.43970 | -3.97433 | 11302 ft | 135 kts | 123° |
| 2026-05-09 11:02 | 59.43495 | -3.95835 | 11307 ft | 135 kts | 127° |
| 2026-05-09 11:02 | 59.42787 | -3.94778 | 11314 ft | 126 kts | 165° |
| 2026-05-09 11:02 | 59.41986 | -3.94041 | 11312 ft | 127 kts | 162° |
| 2026-05-09 11:03 | 59.41184 | -3.93306 | 11318 ft | 127 kts | 163° |
| 2026-05-09 11:03 | 59.40380 | -3.92569 | 11312 ft | 127 kts | 163° |
| 2026-05-09 11:03 | 59.39577 | -3.91833 | 11314 ft | 128 kts | 163° |
| 2026-05-09 11:03 | 59.38783 | -3.91106 | 11319 ft | 128 kts | 163° |
| 2026-05-09 11:04 | 59.37979 | -3.90369 | 11318 ft | 128 kts | 163° |
| 2026-05-09 11:04 | 59.37173 | -3.89630 | 11317 ft | 128 kts | 163° |
| 2026-05-09 11:04 | 59.36371 | -3.88896 | 11314 ft | 127 kts | 163° |
| 2026-05-09 11:04 | 59.35569 | -3.88163 | 11310 ft | 127 kts | 163° |
| 2026-05-09 11:05 | 59.34767 | -3.87430 | 11318 ft | 127 kts | 163° |
| 2026-05-09 11:05 | 59.33965 | -3.86699 | 11323 ft | 127 kts | 163° |
| 2026-05-09 11:05 | 59.33167 | -3.85969 | 11319 ft | 126 kts | 163° |
| 2026-05-09 11:05 | 59.32371 | -3.85243 | 11321 ft | 126 kts | 164° |
| 2026-05-09 11:06 | 59.31576 | -3.84516 | 11314 ft | 126 kts | 164° |
| 2026-05-09 11:06 | 59.30780 | -3.83792 | 11315 ft | 126 kts | 163° |
| 2026-05-09 11:06 | 59.29986 | -3.83068 | 11317 ft | 126 kts | 163° |
| 2026-05-09 11:06 | 59.29193 | -3.82347 | 11313 ft | 126 kts | 163° |
| 2026-05-09 11:07 | 59.28401 | -3.81627 | 11319 ft | 125 kts | 164° |
| 2026-05-09 11:07 | 59.27610 | -3.80906 | 11319 ft | 125 kts | 164° |
| 2026-05-09 11:07 | 59.26820 | -3.80186 | 11317 ft | 125 kts | 163° |
| 2026-05-09 11:07 | 59.26029 | -3.79467 | 11305 ft | 125 kts | 163° |
| 2026-05-09 11:08 | 59.25244 | -3.78754 | 11310 ft | 125 kts | 163° |
| 2026-05-09 11:08 | 59.24457 | -3.78041 | 11310 ft | 125 kts | 163° |
| 2026-05-09 11:08 | 59.23670 | -3.77327 | 11310 ft | 125 kts | 163° |
| 2026-05-09 11:08 | 59.22882 | -3.76612 | 11310 ft | 125 kts | 163° |
| 2026-05-09 11:09 | 59.22094 | -3.75897 | 11313 ft | 125 kts | 163° |
| 2026-05-09 11:09 | 59.21305 | -3.75182 | 11313 ft | 125 kts | 163° |
| 2026-05-09 11:09 | 59.20517 | -3.74468 | 11319 ft | 125 kts | 163° |
| 2026-05-09 11:09 | 59.19727 | -3.73754 | 11317 ft | 125 kts | 163° |
| 2026-05-09 11:10 | 59.18938 | -3.73041 | 11314 ft | 125 kts | 163° |
| 2026-05-09 11:10 | 59.18151 | -3.72329 | 11314 ft | 125 kts | 163° |
| 2026-05-09 11:10 | 59.17362 | -3.71616 | 11313 ft | 125 kts | 163° |
| 2026-05-09 11:10 | 59.16575 | -3.70904 | 11314 ft | 125 kts | 163° |
| 2026-05-09 11:11 | 59.15797 | -3.70202 | 11315 ft | 125 kts | 163° |
| 2026-05-09 11:11 | 59.15000 | -3.69483 | 11314 ft | 125 kts | 163° |
| 2026-05-09 11:11 | 59.14222 | -3.68782 | 11309 ft | 125 kts | 163° |
| 2026-05-09 11:11 | 59.13433 | -3.68071 | 11314 ft | 125 kts | 163° |
| 2026-05-09 11:12 | 59.12646 | -3.67361 | 11317 ft | 124 kts | 163° |
| 2026-05-09 11:12 | 59.11861 | -3.66653 | 11314 ft | 124 kts | 163° |
| 2026-05-09 11:12 | 59.11076 | -3.65947 | 11313 ft | 124 kts | 163° |
| 2026-05-09 11:12 | 59.10293 | -3.65242 | 11314 ft | 124 kts | 163° |
| 2026-05-09 11:13 | 59.09510 | -3.64539 | 11316 ft | 124 kts | 163° |
| 2026-05-09 11:13 | 59.08728 | -3.63837 | 11316 ft | 124 kts | 163° |
| 2026-05-09 11:13 | 59.07948 | -3.63136 | 11307 ft | 123 kts | 163° |
| 2026-05-09 11:13 | 59.07169 | -3.62436 | 11309 ft | 123 kts | 164° |
| 2026-05-09 11:14 | 59.06390 | -3.61736 | 11316 ft | 123 kts | 164° |
| 2026-05-09 11:14 | 59.05610 | -3.61037 | 11316 ft | 124 kts | 163° |
| 2026-05-09 11:14 | 59.04826 | -3.60336 | 11316 ft | 124 kts | 163° |
| 2026-05-09 11:14 | 59.04041 | -3.59633 | 11318 ft | 125 kts | 163° |
| 2026-05-09 11:15 | 59.03249 | -3.58924 | 11319 ft | 125 kts | 163° |
| 2026-05-09 11:15 | 59.02459 | -3.58215 | 11318 ft | 125 kts | 163° |
| 2026-05-09 11:15 | 59.01668 | -3.57507 | 11318 ft | 125 kts | 163° |
| 2026-05-09 11:15 | 59.00879 | -3.56801 | 11317 ft | 125 kts | 163° |
| 2026-05-09 11:16 | 59.00089 | -3.56095 | 11315 ft | 125 kts | 163° |
| 2026-05-09 11:16 | 58.99301 | -3.55392 | 11313 ft | 125 kts | 163° |
| 2026-05-09 11:16 | 58.98514 | -3.54689 | 11314 ft | 125 kts | 163° |
| 2026-05-09 11:16 | 58.97700 | -3.53970 | 11175 ft | 133 kts | 163° |
| 2026-05-09 11:17 | 58.96843 | -3.53208 | 11039 ft | 138 kts | 163° |
| 2026-05-09 11:17 | 58.95964 | -3.52423 | 10889 ft | 140 kts | 163° |
| 2026-05-09 11:17 | 58.95070 | -3.51626 | 10740 ft | 142 kts | 162° |
| 2026-05-09 11:17 | 58.94169 | -3.50824 | 10589 ft | 143 kts | 162° |
| 2026-05-09 11:18 | 58.93262 | -3.50017 | 10420 ft | 144 kts | 162° |
| 2026-05-09 11:18 | 58.92344 | -3.49201 | 10246 ft | 145 kts | 162° |
| 2026-05-09 11:18 | 58.91422 | -3.48380 | 10056 ft | 146 kts | 162° |
| 2026-05-09 11:18 | 58.90512 | -3.47571 | 9863 ft | 146 kts | 162° |
| 2026-05-09 11:19 | 58.89574 | -3.46739 | 9668 ft | 146 kts | 162° |
| 2026-05-09 11:19 | 58.88649 | -3.45918 | 9475 ft | 146 kts | 161° |
| 2026-05-09 11:19 | 58.87736 | -3.45109 | 9285 ft | 146 kts | 161° |
| 2026-05-09 11:19 | 58.86797 | -3.44277 | 9090 ft | 147 kts | 162° |
| 2026-05-09 11:20 | 58.85865 | -3.43452 | 8902 ft | 148 kts | 162° |
| 2026-05-09 11:20 | 58.84944 | -3.42635 | 8716 ft | 148 kts | 161° |
| 2026-05-09 11:20 | 58.84057 | -3.41580 | 8523 ft | 151 kts | 149° |
| 2026-05-09 11:20 | 58.83202 | -3.40391 | 8337 ft | 151 kts | 149° |
| 2026-05-09 11:21 | 58.82347 | -3.39210 | 8149 ft | 151 kts | 149° |
| 2026-05-09 11:21 | 58.81490 | -3.38026 | 7965 ft | 151 kts | 149° |
| 2026-05-09 11:21 | 58.80631 | -3.36845 | 7781 ft | 152 kts | 149° |
| 2026-05-09 11:21 | 58.79768 | -3.35657 | 7598 ft | 153 kts | 148° |
| 2026-05-09 11:22 | 58.78899 | -3.34468 | 7416 ft | 153 kts | 149° |
| 2026-05-09 11:22 | 58.78107 | -3.33086 | 7228 ft | 155 kts | 130° |
| 2026-05-09 11:22 | 58.77439 | -3.31462 | 7050 ft | 154 kts | 130° |
| 2026-05-09 11:22 | 58.76775 | -3.29843 | 6874 ft | 154 kts | 130° |
| 2026-05-09 11:23 | 58.76111 | -3.28228 | 6694 ft | 153 kts | 129° |
| 2026-05-09 11:23 | 58.75447 | -3.26624 | 6505 ft | 153 kts | 130° |
| 2026-05-09 11:23 | 58.74792 | -3.25011 | 6313 ft | 153 kts | 127° |
| 2026-05-09 11:23 | 58.74167 | -3.23357 | 6103 ft | 153 kts | 127° |
| 2026-05-09 11:24 | 58.73541 | -3.21699 | 5888 ft | 153 kts | 127° |
| 2026-05-09 11:24 | 58.72914 | -3.20041 | 5680 ft | 153 kts | 127° |
| 2026-05-09 11:24 | 58.72287 | -3.18384 | 5468 ft | 153 kts | 127° |
| 2026-05-09 11:24 | 58.71660 | -3.16724 | 5261 ft | 153 kts | 127° |
| 2026-05-09 11:25 | 58.71041 | -3.15101 | 5044 ft | 142 kts | 127° |
| 2026-05-09 11:25 | 58.70480 | -3.13652 | 4718 ft | 131 kts | 127° |
| 2026-05-09 11:25 | 58.69953 | -3.12279 | 4384 ft | 125 kts | 126° |
| 2026-05-09 11:25 | 58.69444 | -3.10956 | 4058 ft | 122 kts | 126° |
| 2026-05-09 11:26 | 58.68944 | -3.09661 | 3738 ft | 120 kts | 126° |
| 2026-05-09 11:26 | 58.68442 | -3.08365 | 3367 ft | 124 kts | 126° |
| 2026-05-09 11:26 | 58.67898 | -3.07059 | 2941 ft | 129 kts | 132° |
| 2026-05-09 11:26 | 58.67293 | -3.05772 | 2504 ft | 131 kts | 133° |
| 2026-05-09 11:27 | 58.66677 | -3.04468 | 2109 ft | 130 kts | 133° |
| 2026-05-09 11:27 | 58.66090 | -3.03213 | 1835 ft | 124 kts | 132° |
| 2026-05-09 11:27 | 58.65520 | -3.01991 | 1562 ft | 122 kts | 132° |
| 2026-05-09 11:27 | 58.64915 | -3.00892 | 1283 ft | 119 kts | 162° |
| 2026-05-09 11:28 | 58.64128 | -3.00818 | 1034 ft | 112 kts | 188° |
| 2026-05-09 11:28 | 58.63406 | -3.00855 | 966 ft | 94 kts | 189° |
| 2026-05-09 11:28 | 58.62786 | -3.00841 | 953 ft | 93 kts | 189° |
| 2026-05-09 11:28 | 58.62144 | -3.00837 | 1209 ft | 95 kts | 189° |
| 2026-05-09 11:29 | 58.61401 | -3.00861 | 1141 ft | 118 kts | 188° |
| 2026-05-09 11:29 | 58.60543 | -3.00930 | 1028 ft | 128 kts | 189° |
| 2026-05-09 11:29 | 58.59652 | -3.01016 | 994 ft | 127 kts | 189° |
| 2026-05-09 11:29 | 58.58773 | -3.01097 | 992 ft | 126 kts | 189° |
| 2026-05-09 11:30 | 58.57895 | -3.01160 | 988 ft | 126 kts | 189° |
| 2026-05-09 11:30 | 58.57024 | -3.01229 | 983 ft | 124 kts | 188° |
| 2026-05-09 11:30 | 58.56168 | -3.01317 | 978 ft | 122 kts | 188° |
| 2026-05-09 11:30 | 58.55323 | -3.01416 | 977 ft | 122 kts | 189° |
| 2026-05-09 11:31 | 58.54478 | -3.01494 | 976 ft | 121 kts | 189° |
| 2026-05-09 11:31 | 58.53641 | -3.01586 | 978 ft | 120 kts | 189° |
| 2026-05-09 11:31 | 58.52806 | -3.01651 | 979 ft | 120 kts | 189° |
| 2026-05-09 11:31 | 58.51980 | -3.01725 | 965 ft | 112 kts | 189° |
| 2026-05-09 11:32 | 58.51499 | -3.01746 | 962 ft | 98 kts | 188° |
| 2026-05-09 11:32 | 58.50875 | -3.01747 | 1030 ft | 85 kts | 187° |
| 2026-05-09 11:32 | 58.50278 | -3.01686 | 1060 ft | 88 kts | 186° |
| 2026-05-09 11:32 | 58.49646 | -3.01659 | 1079 ft | 94 kts | 187° |
| 2026-05-09 11:33 | 58.48975 | -3.01701 | 1082 ft | 99 kts | 194° |
| 2026-05-09 11:33 | 58.48299 | -3.01853 | 1127 ft | 95 kts | 197° |
| 2026-05-09 11:33 | 58.46991 | -3.02203 | 1051 ft | 97 kts | 199° |
| 2026-05-09 11:34 | 58.46343 | -3.02517 | 987 ft | 95 kts | 208° |
| 2026-05-09 11:34 | 58.45722 | -3.02957 | 832 ft | 93 kts | 217° |
| 2026-05-09 11:34 | 58.45199 | -3.03607 | 647 ft | 87 kts | 234° |
| 2026-05-09 11:34 | 58.44799 | -3.04379 | 577 ft | 74 kts | 246° |
| 2026-05-09 11:35 | 58.44660 | -3.05231 | 480 ft | 64 kts | 289° |
| 2026-05-09 11:35 | 58.44775 | -3.06034 | 431 ft | 61 kts | 292° |
| 2026-05-09 11:35 | 58.44911 | -3.06771 | 348 ft | 59 kts | 300° |
| 2026-05-09 11:35 | 58.45133 | -3.07423 | 260 ft | 57 kts | 308° |
| 2026-05-09 11:36 | 58.45364 | -3.07997 | 192 ft | 54 kts | 308° |
| 2026-05-09 11:36 | 58.45590 | -3.08573 | 128 ft | 54 kts | 308° |
| 2026-05-09 11:36 | 58.45789 | -3.09070 | 119 ft | 37 kts | 307° |
| 2026-05-09 11:36 | 58.45839 | -3.09215 | 118 ft | 2 kts | 22° |
| 2026-05-09 11:37 | 58.45834 | -3.09182 | 117 ft | 6 kts | 129° |
| 2026-05-09 11:37 | 58.45792 | -3.09078 | 119 ft | 12 kts | 127° |
| 2026-05-09 11:37 | 58.45749 | -3.08964 | 122 ft | 11 kts | 122° |
| 2026-05-09 11:37 | 58.45691 | -3.08825 | 121 ft | 15 kts | 127° |
| 2026-05-09 11:38 | 58.45627 | -3.08656 | 121 ft | 16 kts | 130° |
| 2026-05-09 11:38 | 58.45571 | -3.08598 | 118 ft | 7 kts | 231° |
| 2026-05-09 11:38 | 58.45545 | -3.08673 | 119 ft | 7 kts | 232° |
| 2026-05-09 11:38 | 58.45509 | -3.08741 | 120 ft | 7 kts | 220° |
| 2026-05-09 11:39 | 58.45472 | -3.08789 | 121 ft | 6 kts | 178° |
| 2026-05-09 11:39 | 58.45436 | -3.08760 | 119 ft | 5 kts | 160° |
| 2026-05-09 11:39 | 58.45405 | -3.08778 | 119 ft | 6 kts | 224° |
| 2026-05-09 11:40 | 58.45371 | -3.08878 | 117 ft | 0 kts | 285° |
| 2026-05-09 11:40 | 58.45371 | -3.08880 | 117 ft | 0 kts | 286° |
| 2026-05-09 11:40 | 58.45371 | -3.08881 | 117 ft | 0 kts | 286° |